<?xml version="1.0" encoding="UTF-8" standalone="no" ?>
<gpx xmlns="http://www.topografix.com/GPX/1/1" xmlns:xsi="http://www.w3.org/2001/XMLSchema-instance" xsi:schemaLocation="http://www.topografix.com/GPX/1/1 http://www.topografix.com/GPX/1/1/gpx.xsd" version="1.1" creator="VisuGPX - https://www.visugpx.com">
  <metadata>
    <name>plateau de beille Prats Mollo</name>
    <desc><![CDATA[sortie plateau de beille 16 novembre 2019

9 participants :

Daniel B Elisien, Jean-francois, Henri Robert , JP, Serge
Dominique H, Francoise P
]]></desc>
  </metadata>
  <trk>
    <name><![CDATA[plateau de beille Prats Mollo]]></name>
    <cmt><![CDATA[09:48:43]]></cmt>
    <desc><![CDATA[comment ...]]></desc>
    <trkseg>
      <trkpt lat="42.7233" lon="1.69165">
        <ele>1796</ele>
        <time>2019-11-16T08:48:43Z</time>
      </trkpt>
      <trkpt lat="42.7233" lon="1.69165">
        <ele>1796</ele>
        <time>2019-11-16T08:48:44Z</time>
      </trkpt>
      <trkpt lat="42.72298" lon="1.6918">
        <ele>1796</ele>
        <time>2019-11-16T08:49:19Z</time>
      </trkpt>
      <trkpt lat="42.7229" lon="1.69183">
        <ele>1796</ele>
        <time>2019-11-16T08:49:26Z</time>
      </trkpt>
      <trkpt lat="42.72266" lon="1.69189">
        <ele>1799</ele>
        <time>2019-11-16T08:49:51Z</time>
      </trkpt>
      <trkpt lat="42.72252" lon="1.69189">
        <ele>1800</ele>
        <time>2019-11-16T08:50:06Z</time>
      </trkpt>
      <trkpt lat="42.72239" lon="1.69197">
        <ele>1803</ele>
        <time>2019-11-16T08:50:21Z</time>
      </trkpt>
      <trkpt lat="42.72228" lon="1.692">
        <ele>1804</ele>
        <time>2019-11-16T08:50:33Z</time>
      </trkpt>
      <trkpt lat="42.72216" lon="1.69204">
        <ele>1804</ele>
        <time>2019-11-16T08:50:47Z</time>
      </trkpt>
      <trkpt lat="42.72205" lon="1.69207">
        <ele>1805</ele>
        <time>2019-11-16T08:50:58Z</time>
      </trkpt>
      <trkpt lat="42.72199" lon="1.69207">
        <ele>1806</ele>
        <time>2019-11-16T08:51:05Z</time>
      </trkpt>
      <trkpt lat="42.72192" lon="1.69206">
        <ele>1808</ele>
        <time>2019-11-16T08:51:14Z</time>
      </trkpt>
      <trkpt lat="42.72186" lon="1.69207">
        <ele>1809</ele>
        <time>2019-11-16T08:51:19Z</time>
      </trkpt>
      <trkpt lat="42.72167" lon="1.69207">
        <ele>1812</ele>
        <time>2019-11-16T08:51:45Z</time>
      </trkpt>
      <trkpt lat="42.72161" lon="1.69206">
        <ele>1812</ele>
        <time>2019-11-16T08:51:51Z</time>
      </trkpt>
      <trkpt lat="42.72155" lon="1.69205">
        <ele>1812</ele>
        <time>2019-11-16T08:51:57Z</time>
      </trkpt>
      <trkpt lat="42.7215" lon="1.69203">
        <ele>1812</ele>
        <time>2019-11-16T08:52:03Z</time>
      </trkpt>
      <trkpt lat="42.72145" lon="1.69201">
        <ele>1813</ele>
        <time>2019-11-16T08:52:10Z</time>
      </trkpt>
      <trkpt lat="42.72139" lon="1.69198">
        <ele>1813</ele>
        <time>2019-11-16T08:52:17Z</time>
      </trkpt>
      <trkpt lat="42.72128" lon="1.69192">
        <ele>1814</ele>
        <time>2019-11-16T08:52:28Z</time>
      </trkpt>
      <trkpt lat="42.72123" lon="1.69188">
        <ele>1815</ele>
        <time>2019-11-16T08:52:34Z</time>
      </trkpt>
      <trkpt lat="42.72118" lon="1.69187">
        <ele>1815</ele>
        <time>2019-11-16T08:52:39Z</time>
      </trkpt>
      <trkpt lat="42.72106" lon="1.69181">
        <ele>1815</ele>
        <time>2019-11-16T08:52:57Z</time>
      </trkpt>
      <trkpt lat="42.721" lon="1.69179">
        <ele>1815</ele>
        <time>2019-11-16T08:53:03Z</time>
      </trkpt>
      <trkpt lat="42.72094" lon="1.69176">
        <ele>1815</ele>
        <time>2019-11-16T08:53:08Z</time>
      </trkpt>
      <trkpt lat="42.72072" lon="1.69171">
        <ele>1816</ele>
        <time>2019-11-16T08:53:36Z</time>
      </trkpt>
      <trkpt lat="42.72045" lon="1.69168">
        <ele>1818</ele>
        <time>2019-11-16T08:54:03Z</time>
      </trkpt>
      <trkpt lat="42.72038" lon="1.69168">
        <ele>1818</ele>
        <time>2019-11-16T08:54:13Z</time>
      </trkpt>
      <trkpt lat="42.72031" lon="1.69166">
        <ele>1819</ele>
        <time>2019-11-16T08:54:20Z</time>
      </trkpt>
      <trkpt lat="42.72025" lon="1.69165">
        <ele>1819</ele>
        <time>2019-11-16T08:54:27Z</time>
      </trkpt>
      <trkpt lat="42.72019" lon="1.69165">
        <ele>1820</ele>
        <time>2019-11-16T08:54:36Z</time>
      </trkpt>
      <trkpt lat="42.72014" lon="1.69164">
        <ele>1820</ele>
        <time>2019-11-16T08:54:43Z</time>
      </trkpt>
      <trkpt lat="42.72002" lon="1.69164">
        <ele>1821</ele>
        <time>2019-11-16T08:54:56Z</time>
      </trkpt>
      <trkpt lat="42.71995" lon="1.6916">
        <ele>1822</ele>
        <time>2019-11-16T08:55:38Z</time>
      </trkpt>
      <trkpt lat="42.71989" lon="1.69159">
        <ele>1825</ele>
        <time>2019-11-16T08:55:45Z</time>
      </trkpt>
      <trkpt lat="42.71975" lon="1.69162">
        <ele>1825</ele>
        <time>2019-11-16T08:56:02Z</time>
      </trkpt>
      <trkpt lat="42.71968" lon="1.69164">
        <ele>1825</ele>
        <time>2019-11-16T08:56:09Z</time>
      </trkpt>
      <trkpt lat="42.71963" lon="1.69162">
        <ele>1824</ele>
        <time>2019-11-16T08:57:36Z</time>
      </trkpt>
      <trkpt lat="42.71954" lon="1.69162">
        <ele>1824</ele>
        <time>2019-11-16T08:57:43Z</time>
      </trkpt>
      <trkpt lat="42.71947" lon="1.69161">
        <ele>1824</ele>
        <time>2019-11-16T08:57:50Z</time>
      </trkpt>
      <trkpt lat="42.7194" lon="1.69159">
        <ele>1824</ele>
        <time>2019-11-16T08:57:56Z</time>
      </trkpt>
      <trkpt lat="42.71927" lon="1.69163">
        <ele>1826</ele>
        <time>2019-11-16T08:58:12Z</time>
      </trkpt>
      <trkpt lat="42.7192" lon="1.69161">
        <ele>1826</ele>
        <time>2019-11-16T08:58:19Z</time>
      </trkpt>
      <trkpt lat="42.71912" lon="1.69164">
        <ele>1827</ele>
        <time>2019-11-16T08:58:26Z</time>
      </trkpt>
      <trkpt lat="42.71905" lon="1.69169">
        <ele>1827</ele>
        <time>2019-11-16T08:58:37Z</time>
      </trkpt>
      <trkpt lat="42.71899" lon="1.69173">
        <ele>1828</ele>
        <time>2019-11-16T08:58:44Z</time>
      </trkpt>
      <trkpt lat="42.71878" lon="1.69176">
        <ele>1830</ele>
        <time>2019-11-16T08:59:07Z</time>
      </trkpt>
      <trkpt lat="42.71872" lon="1.69182">
        <ele>1830</ele>
        <time>2019-11-16T08:59:14Z</time>
      </trkpt>
      <trkpt lat="42.71865" lon="1.69184">
        <ele>1832</ele>
        <time>2019-11-16T08:59:24Z</time>
      </trkpt>
      <trkpt lat="42.71859" lon="1.69185">
        <ele>1833</ele>
        <time>2019-11-16T08:59:33Z</time>
      </trkpt>
      <trkpt lat="42.71852" lon="1.69188">
        <ele>1836</ele>
        <time>2019-11-16T09:00:49Z</time>
      </trkpt>
      <trkpt lat="42.71839" lon="1.69201">
        <ele>1839</ele>
        <time>2019-11-16T09:01:07Z</time>
      </trkpt>
      <trkpt lat="42.71834" lon="1.69205">
        <ele>1840</ele>
        <time>2019-11-16T09:01:14Z</time>
      </trkpt>
      <trkpt lat="42.71827" lon="1.69211">
        <ele>1840</ele>
        <time>2019-11-16T09:01:24Z</time>
      </trkpt>
      <trkpt lat="42.71823" lon="1.69215">
        <ele>1841</ele>
        <time>2019-11-16T09:01:33Z</time>
      </trkpt>
      <trkpt lat="42.71808" lon="1.69228">
        <ele>1841</ele>
        <time>2019-11-16T09:01:55Z</time>
      </trkpt>
      <trkpt lat="42.718" lon="1.69229">
        <ele>1841</ele>
        <time>2019-11-16T09:02:04Z</time>
      </trkpt>
      <trkpt lat="42.71795" lon="1.6923">
        <ele>1842</ele>
        <time>2019-11-16T09:02:11Z</time>
      </trkpt>
      <trkpt lat="42.7179" lon="1.69232">
        <ele>1842</ele>
        <time>2019-11-16T09:02:15Z</time>
      </trkpt>
      <trkpt lat="42.71784" lon="1.69234">
        <ele>1842</ele>
        <time>2019-11-16T09:02:23Z</time>
      </trkpt>
      <trkpt lat="42.71759" lon="1.6924">
        <ele>1845</ele>
        <time>2019-11-16T09:02:57Z</time>
      </trkpt>
      <trkpt lat="42.71752" lon="1.69244">
        <ele>1845</ele>
        <time>2019-11-16T09:03:05Z</time>
      </trkpt>
      <trkpt lat="42.71743" lon="1.69252">
        <ele>1846</ele>
        <time>2019-11-16T09:03:17Z</time>
      </trkpt>
      <trkpt lat="42.71737" lon="1.69258">
        <ele>1846</ele>
        <time>2019-11-16T09:03:29Z</time>
      </trkpt>
      <trkpt lat="42.71725" lon="1.69272">
        <ele>1847</ele>
        <time>2019-11-16T09:03:49Z</time>
      </trkpt>
      <trkpt lat="42.7172" lon="1.69279">
        <ele>1849</ele>
        <time>2019-11-16T09:03:58Z</time>
      </trkpt>
      <trkpt lat="42.71715" lon="1.69294">
        <ele>1851</ele>
        <time>2019-11-16T09:04:10Z</time>
      </trkpt>
      <trkpt lat="42.71712" lon="1.69302">
        <ele>1852</ele>
        <time>2019-11-16T09:04:16Z</time>
      </trkpt>
      <trkpt lat="42.71709" lon="1.69309">
        <ele>1853</ele>
        <time>2019-11-16T09:04:23Z</time>
      </trkpt>
      <trkpt lat="42.71707" lon="1.69319">
        <ele>1854</ele>
        <time>2019-11-16T09:04:36Z</time>
      </trkpt>
      <trkpt lat="42.71701" lon="1.69336">
        <ele>1858</ele>
        <time>2019-11-16T09:05:07Z</time>
      </trkpt>
      <trkpt lat="42.71699" lon="1.69348">
        <ele>1860</ele>
        <time>2019-11-16T09:05:15Z</time>
      </trkpt>
      <trkpt lat="42.71702" lon="1.69366">
        <ele>1860</ele>
        <time>2019-11-16T09:05:28Z</time>
      </trkpt>
      <trkpt lat="42.71703" lon="1.69374">
        <ele>1860</ele>
        <time>2019-11-16T09:05:33Z</time>
      </trkpt>
      <trkpt lat="42.71705" lon="1.69381">
        <ele>1859</ele>
        <time>2019-11-16T09:05:39Z</time>
      </trkpt>
      <trkpt lat="42.71705" lon="1.69391">
        <ele>1859</ele>
        <time>2019-11-16T09:05:48Z</time>
      </trkpt>
      <trkpt lat="42.71707" lon="1.69398">
        <ele>1859</ele>
        <time>2019-11-16T09:05:59Z</time>
      </trkpt>
      <trkpt lat="42.7171" lon="1.69407">
        <ele>1859</ele>
        <time>2019-11-16T09:06:05Z</time>
      </trkpt>
      <trkpt lat="42.71711" lon="1.69415">
        <ele>1859</ele>
        <time>2019-11-16T09:06:10Z</time>
      </trkpt>
      <trkpt lat="42.71716" lon="1.69423">
        <ele>1860</ele>
        <time>2019-11-16T09:06:18Z</time>
      </trkpt>
      <trkpt lat="42.71738" lon="1.69431">
        <ele>1861</ele>
        <time>2019-11-16T09:06:41Z</time>
      </trkpt>
      <trkpt lat="42.71745" lon="1.69435">
        <ele>1861</ele>
        <time>2019-11-16T09:06:48Z</time>
      </trkpt>
      <trkpt lat="42.71752" lon="1.69437">
        <ele>1861</ele>
        <time>2019-11-16T09:06:55Z</time>
      </trkpt>
      <trkpt lat="42.71758" lon="1.69437">
        <ele>1861</ele>
        <time>2019-11-16T09:07:01Z</time>
      </trkpt>
      <trkpt lat="42.7177" lon="1.69436">
        <ele>1863</ele>
        <time>2019-11-16T09:07:34Z</time>
      </trkpt>
      <trkpt lat="42.71768" lon="1.69439">
        <ele>1865</ele>
        <time>2019-11-16T09:08:33Z</time>
      </trkpt>
      <trkpt lat="42.71771" lon="1.69436">
        <ele>1866</ele>
        <time>2019-11-16T09:09:50Z</time>
      </trkpt>
      <trkpt lat="42.71772" lon="1.69438">
        <ele>1863</ele>
        <time>2019-11-16T09:11:49Z</time>
      </trkpt>
      <trkpt lat="42.71768" lon="1.6944">
        <ele>1862</ele>
        <time>2019-11-16T09:12:05Z</time>
      </trkpt>
      <trkpt lat="42.71774" lon="1.69445">
        <ele>1862</ele>
        <time>2019-11-16T09:12:24Z</time>
      </trkpt>
      <trkpt lat="42.71777" lon="1.69441">
        <ele>1864</ele>
        <time>2019-11-16T09:12:41Z</time>
      </trkpt>
      <trkpt lat="42.71781" lon="1.6944">
        <ele>1865</ele>
        <time>2019-11-16T09:12:49Z</time>
      </trkpt>
      <trkpt lat="42.71786" lon="1.69439">
        <ele>1866</ele>
        <time>2019-11-16T09:12:55Z</time>
      </trkpt>
      <trkpt lat="42.71794" lon="1.6944">
        <ele>1866</ele>
        <time>2019-11-16T09:13:04Z</time>
      </trkpt>
      <trkpt lat="42.71805" lon="1.69452">
        <ele>1867</ele>
        <time>2019-11-16T09:13:25Z</time>
      </trkpt>
      <trkpt lat="42.71807" lon="1.69459">
        <ele>1867</ele>
        <time>2019-11-16T09:13:31Z</time>
      </trkpt>
      <trkpt lat="42.71812" lon="1.695">
        <ele>1866</ele>
        <time>2019-11-16T09:14:05Z</time>
      </trkpt>
      <trkpt lat="42.71811" lon="1.6951">
        <ele>1866</ele>
        <time>2019-11-16T09:14:16Z</time>
      </trkpt>
      <trkpt lat="42.71811" lon="1.69518">
        <ele>1866</ele>
        <time>2019-11-16T09:14:22Z</time>
      </trkpt>
      <trkpt lat="42.71811" lon="1.69542">
        <ele>1867</ele>
        <time>2019-11-16T09:14:43Z</time>
      </trkpt>
      <trkpt lat="42.71811" lon="1.6955">
        <ele>1867</ele>
        <time>2019-11-16T09:14:48Z</time>
      </trkpt>
      <trkpt lat="42.71809" lon="1.69591">
        <ele>1869</ele>
        <time>2019-11-16T09:15:24Z</time>
      </trkpt>
      <trkpt lat="42.7181" lon="1.69608">
        <ele>1870</ele>
        <time>2019-11-16T09:15:36Z</time>
      </trkpt>
      <trkpt lat="42.7181" lon="1.69615">
        <ele>1871</ele>
        <time>2019-11-16T09:15:42Z</time>
      </trkpt>
      <trkpt lat="42.71811" lon="1.69631">
        <ele>1872</ele>
        <time>2019-11-16T09:15:57Z</time>
      </trkpt>
      <trkpt lat="42.71814" lon="1.69639">
        <ele>1872</ele>
        <time>2019-11-16T09:16:03Z</time>
      </trkpt>
      <trkpt lat="42.71815" lon="1.69647">
        <ele>1873</ele>
        <time>2019-11-16T09:16:10Z</time>
      </trkpt>
      <trkpt lat="42.7182" lon="1.6967">
        <ele>1873</ele>
        <time>2019-11-16T09:16:29Z</time>
      </trkpt>
      <trkpt lat="42.71823" lon="1.69679">
        <ele>1874</ele>
        <time>2019-11-16T09:16:36Z</time>
      </trkpt>
      <trkpt lat="42.71828" lon="1.6971">
        <ele>1875</ele>
        <time>2019-11-16T09:16:58Z</time>
      </trkpt>
      <trkpt lat="42.71827" lon="1.69718">
        <ele>1876</ele>
        <time>2019-11-16T09:17:07Z</time>
      </trkpt>
      <trkpt lat="42.71824" lon="1.69734">
        <ele>1876</ele>
        <time>2019-11-16T09:17:21Z</time>
      </trkpt>
      <trkpt lat="42.71819" lon="1.69741">
        <ele>1876</ele>
        <time>2019-11-16T09:17:28Z</time>
      </trkpt>
      <trkpt lat="42.71814" lon="1.69749">
        <ele>1876</ele>
        <time>2019-11-16T09:17:34Z</time>
      </trkpt>
      <trkpt lat="42.71803" lon="1.69783">
        <ele>1876</ele>
        <time>2019-11-16T09:18:06Z</time>
      </trkpt>
      <trkpt lat="42.71798" lon="1.69797">
        <ele>1877</ele>
        <time>2019-11-16T09:18:22Z</time>
      </trkpt>
      <trkpt lat="42.71795" lon="1.69804">
        <ele>1877</ele>
        <time>2019-11-16T09:18:28Z</time>
      </trkpt>
      <trkpt lat="42.71794" lon="1.69813">
        <ele>1877</ele>
        <time>2019-11-16T09:18:35Z</time>
      </trkpt>
      <trkpt lat="42.71794" lon="1.69818">
        <ele>1878</ele>
        <time>2019-11-16T09:18:39Z</time>
      </trkpt>
      <trkpt lat="42.71792" lon="1.69826">
        <ele>1878</ele>
        <time>2019-11-16T09:18:46Z</time>
      </trkpt>
      <trkpt lat="42.71793" lon="1.69834">
        <ele>1878</ele>
        <time>2019-11-16T09:18:56Z</time>
      </trkpt>
      <trkpt lat="42.71793" lon="1.69844">
        <ele>1878</ele>
        <time>2019-11-16T09:19:06Z</time>
      </trkpt>
      <trkpt lat="42.71791" lon="1.69851">
        <ele>1879</ele>
        <time>2019-11-16T09:19:13Z</time>
      </trkpt>
      <trkpt lat="42.71789" lon="1.69864">
        <ele>1880</ele>
        <time>2019-11-16T09:19:25Z</time>
      </trkpt>
      <trkpt lat="42.71789" lon="1.69879">
        <ele>1882</ele>
        <time>2019-11-16T09:19:39Z</time>
      </trkpt>
      <trkpt lat="42.71791" lon="1.69887">
        <ele>1883</ele>
        <time>2019-11-16T09:19:49Z</time>
      </trkpt>
      <trkpt lat="42.71791" lon="1.69895">
        <ele>1883</ele>
        <time>2019-11-16T09:19:55Z</time>
      </trkpt>
      <trkpt lat="42.71792" lon="1.69902">
        <ele>1883</ele>
        <time>2019-11-16T09:20:01Z</time>
      </trkpt>
      <trkpt lat="42.71795" lon="1.69909">
        <ele>1883</ele>
        <time>2019-11-16T09:20:09Z</time>
      </trkpt>
      <trkpt lat="42.71795" lon="1.69917">
        <ele>1883</ele>
        <time>2019-11-16T09:20:14Z</time>
      </trkpt>
      <trkpt lat="42.71794" lon="1.69922">
        <ele>1883</ele>
        <time>2019-11-16T09:20:19Z</time>
      </trkpt>
      <trkpt lat="42.71794" lon="1.69929">
        <ele>1884</ele>
        <time>2019-11-16T09:20:28Z</time>
      </trkpt>
      <trkpt lat="42.71794" lon="1.69947">
        <ele>1886</ele>
        <time>2019-11-16T09:20:45Z</time>
      </trkpt>
      <trkpt lat="42.71794" lon="1.69955">
        <ele>1886</ele>
        <time>2019-11-16T09:20:53Z</time>
      </trkpt>
      <trkpt lat="42.71794" lon="1.6996">
        <ele>1887</ele>
        <time>2019-11-16T09:20:58Z</time>
      </trkpt>
      <trkpt lat="42.71794" lon="1.69969">
        <ele>1887</ele>
        <time>2019-11-16T09:21:07Z</time>
      </trkpt>
      <trkpt lat="42.71794" lon="1.69974">
        <ele>1887</ele>
        <time>2019-11-16T09:21:12Z</time>
      </trkpt>
      <trkpt lat="42.71793" lon="1.6998">
        <ele>1888</ele>
        <time>2019-11-16T09:21:16Z</time>
      </trkpt>
      <trkpt lat="42.71793" lon="1.69988">
        <ele>1888</ele>
        <time>2019-11-16T09:21:23Z</time>
      </trkpt>
      <trkpt lat="42.71797" lon="1.70006">
        <ele>1890</ele>
        <time>2019-11-16T09:21:41Z</time>
      </trkpt>
      <trkpt lat="42.71798" lon="1.70011">
        <ele>1890</ele>
        <time>2019-11-16T09:21:47Z</time>
      </trkpt>
      <trkpt lat="42.71796" lon="1.70034">
        <ele>1892</ele>
        <time>2019-11-16T09:22:07Z</time>
      </trkpt>
      <trkpt lat="42.71798" lon="1.7005">
        <ele>1893</ele>
        <time>2019-11-16T09:22:25Z</time>
      </trkpt>
      <trkpt lat="42.71798" lon="1.70057">
        <ele>1893</ele>
        <time>2019-11-16T09:22:30Z</time>
      </trkpt>
      <trkpt lat="42.71796" lon="1.70081">
        <ele>1894</ele>
        <time>2019-11-16T09:22:49Z</time>
      </trkpt>
      <trkpt lat="42.7179" lon="1.70095">
        <ele>1896</ele>
        <time>2019-11-16T09:23:13Z</time>
      </trkpt>
      <trkpt lat="42.7178" lon="1.70107">
        <ele>1897</ele>
        <time>2019-11-16T09:23:46Z</time>
      </trkpt>
      <trkpt lat="42.71776" lon="1.70111">
        <ele>1898</ele>
        <time>2019-11-16T09:23:54Z</time>
      </trkpt>
      <trkpt lat="42.71768" lon="1.70116">
        <ele>1899</ele>
        <time>2019-11-16T09:24:08Z</time>
      </trkpt>
      <trkpt lat="42.71759" lon="1.70128">
        <ele>1901</ele>
        <time>2019-11-16T09:24:21Z</time>
      </trkpt>
      <trkpt lat="42.71752" lon="1.70138">
        <ele>1901</ele>
        <time>2019-11-16T09:24:34Z</time>
      </trkpt>
      <trkpt lat="42.71747" lon="1.70142">
        <ele>1901</ele>
        <time>2019-11-16T09:24:40Z</time>
      </trkpt>
      <trkpt lat="42.71746" lon="1.70148">
        <ele>1902</ele>
        <time>2019-11-16T09:24:51Z</time>
      </trkpt>
      <trkpt lat="42.71739" lon="1.70158">
        <ele>1903</ele>
        <time>2019-11-16T09:25:03Z</time>
      </trkpt>
      <trkpt lat="42.71737" lon="1.70165">
        <ele>1903</ele>
        <time>2019-11-16T09:25:09Z</time>
      </trkpt>
      <trkpt lat="42.71735" lon="1.70173">
        <ele>1903</ele>
        <time>2019-11-16T09:25:16Z</time>
      </trkpt>
      <trkpt lat="42.71735" lon="1.7018">
        <ele>1904</ele>
        <time>2019-11-16T09:25:25Z</time>
      </trkpt>
      <trkpt lat="42.71736" lon="1.70188">
        <ele>1904</ele>
        <time>2019-11-16T09:25:37Z</time>
      </trkpt>
      <trkpt lat="42.71735" lon="1.70196">
        <ele>1904</ele>
        <time>2019-11-16T09:25:43Z</time>
      </trkpt>
      <trkpt lat="42.71734" lon="1.70204">
        <ele>1904</ele>
        <time>2019-11-16T09:25:50Z</time>
      </trkpt>
      <trkpt lat="42.71735" lon="1.70227">
        <ele>1906</ele>
        <time>2019-11-16T09:26:18Z</time>
      </trkpt>
      <trkpt lat="42.71737" lon="1.70233">
        <ele>1906</ele>
        <time>2019-11-16T09:26:23Z</time>
      </trkpt>
      <trkpt lat="42.71738" lon="1.70251">
        <ele>1908</ele>
        <time>2019-11-16T09:26:52Z</time>
      </trkpt>
      <trkpt lat="42.71738" lon="1.70267">
        <ele>1909</ele>
        <time>2019-11-16T09:27:09Z</time>
      </trkpt>
      <trkpt lat="42.7174" lon="1.70281">
        <ele>1910</ele>
        <time>2019-11-16T09:27:22Z</time>
      </trkpt>
      <trkpt lat="42.7174" lon="1.70289">
        <ele>1911</ele>
        <time>2019-11-16T09:27:30Z</time>
      </trkpt>
      <trkpt lat="42.71743" lon="1.70311">
        <ele>1911</ele>
        <time>2019-11-16T09:27:51Z</time>
      </trkpt>
      <trkpt lat="42.71743" lon="1.7032">
        <ele>1912</ele>
        <time>2019-11-16T09:27:59Z</time>
      </trkpt>
      <trkpt lat="42.71742" lon="1.70327">
        <ele>1913</ele>
        <time>2019-11-16T09:28:06Z</time>
      </trkpt>
      <trkpt lat="42.71742" lon="1.70333">
        <ele>1913</ele>
        <time>2019-11-16T09:28:11Z</time>
      </trkpt>
      <trkpt lat="42.71736" lon="1.70347">
        <ele>1914</ele>
        <time>2019-11-16T09:28:25Z</time>
      </trkpt>
      <trkpt lat="42.71732" lon="1.70353">
        <ele>1915</ele>
        <time>2019-11-16T09:28:36Z</time>
      </trkpt>
      <trkpt lat="42.7173" lon="1.70359">
        <ele>1917</ele>
        <time>2019-11-16T09:29:13Z</time>
      </trkpt>
      <trkpt lat="42.71729" lon="1.70364">
        <ele>1920</ele>
        <time>2019-11-16T09:33:11Z</time>
      </trkpt>
      <trkpt lat="42.71724" lon="1.70368">
        <ele>1920</ele>
        <time>2019-11-16T09:35:15Z</time>
      </trkpt>
      <trkpt lat="42.71721" lon="1.70371">
        <ele>1921</ele>
        <time>2019-11-16T09:35:28Z</time>
      </trkpt>
      <trkpt lat="42.71716" lon="1.70377">
        <ele>1921</ele>
        <time>2019-11-16T09:35:35Z</time>
      </trkpt>
      <trkpt lat="42.71711" lon="1.70381">
        <ele>1921</ele>
        <time>2019-11-16T09:35:41Z</time>
      </trkpt>
      <trkpt lat="42.71708" lon="1.70383">
        <ele>1921</ele>
        <time>2019-11-16T09:35:46Z</time>
      </trkpt>
      <trkpt lat="42.71705" lon="1.70387">
        <ele>1921</ele>
        <time>2019-11-16T09:35:51Z</time>
      </trkpt>
      <trkpt lat="42.71697" lon="1.70396">
        <ele>1922</ele>
        <time>2019-11-16T09:36:02Z</time>
      </trkpt>
      <trkpt lat="42.71684" lon="1.70408">
        <ele>1922</ele>
        <time>2019-11-16T09:36:25Z</time>
      </trkpt>
      <trkpt lat="42.71676" lon="1.70415">
        <ele>1921</ele>
        <time>2019-11-16T09:36:38Z</time>
      </trkpt>
      <trkpt lat="42.71672" lon="1.70418">
        <ele>1921</ele>
        <time>2019-11-16T09:36:42Z</time>
      </trkpt>
      <trkpt lat="42.71668" lon="1.7042">
        <ele>1921</ele>
        <time>2019-11-16T09:36:49Z</time>
      </trkpt>
      <trkpt lat="42.71663" lon="1.70425">
        <ele>1922</ele>
        <time>2019-11-16T09:36:56Z</time>
      </trkpt>
      <trkpt lat="42.7166" lon="1.70429">
        <ele>1922</ele>
        <time>2019-11-16T09:37:00Z</time>
      </trkpt>
      <trkpt lat="42.71657" lon="1.70433">
        <ele>1923</ele>
        <time>2019-11-16T09:37:05Z</time>
      </trkpt>
      <trkpt lat="42.7165" lon="1.70444">
        <ele>1924</ele>
        <time>2019-11-16T09:37:20Z</time>
      </trkpt>
      <trkpt lat="42.71646" lon="1.70449">
        <ele>1924</ele>
        <time>2019-11-16T09:37:26Z</time>
      </trkpt>
      <trkpt lat="42.71641" lon="1.7046">
        <ele>1924</ele>
        <time>2019-11-16T09:37:39Z</time>
      </trkpt>
      <trkpt lat="42.71637" lon="1.70464">
        <ele>1924</ele>
        <time>2019-11-16T09:37:44Z</time>
      </trkpt>
      <trkpt lat="42.71634" lon="1.70467">
        <ele>1925</ele>
        <time>2019-11-16T09:37:50Z</time>
      </trkpt>
      <trkpt lat="42.71631" lon="1.70474">
        <ele>1925</ele>
        <time>2019-11-16T09:37:57Z</time>
      </trkpt>
      <trkpt lat="42.71626" lon="1.70485">
        <ele>1925</ele>
        <time>2019-11-16T09:38:13Z</time>
      </trkpt>
      <trkpt lat="42.71621" lon="1.70498">
        <ele>1926</ele>
        <time>2019-11-16T09:38:26Z</time>
      </trkpt>
      <trkpt lat="42.71619" lon="1.70504">
        <ele>1927</ele>
        <time>2019-11-16T09:38:33Z</time>
      </trkpt>
      <trkpt lat="42.7161" lon="1.70523">
        <ele>1927</ele>
        <time>2019-11-16T09:39:14Z</time>
      </trkpt>
      <trkpt lat="42.71594" lon="1.70544">
        <ele>1930</ele>
        <time>2019-11-16T09:39:57Z</time>
      </trkpt>
      <trkpt lat="42.71592" lon="1.70549">
        <ele>1930</ele>
        <time>2019-11-16T09:40:02Z</time>
      </trkpt>
      <trkpt lat="42.7159" lon="1.70553">
        <ele>1930</ele>
        <time>2019-11-16T09:40:31Z</time>
      </trkpt>
      <trkpt lat="42.71589" lon="1.70552">
        <ele>1931</ele>
        <time>2019-11-16T09:44:55Z</time>
      </trkpt>
      <trkpt lat="42.71587" lon="1.70548">
        <ele>1933</ele>
        <time>2019-11-16T09:49:42Z</time>
      </trkpt>
      <trkpt lat="42.71583" lon="1.70557">
        <ele>1933</ele>
        <time>2019-11-16T09:50:02Z</time>
      </trkpt>
      <trkpt lat="42.71577" lon="1.7056">
        <ele>1934</ele>
        <time>2019-11-16T09:50:12Z</time>
      </trkpt>
      <trkpt lat="42.71572" lon="1.70566">
        <ele>1933</ele>
        <time>2019-11-16T09:50:19Z</time>
      </trkpt>
      <trkpt lat="42.71568" lon="1.70572">
        <ele>1932</ele>
        <time>2019-11-16T09:50:27Z</time>
      </trkpt>
      <trkpt lat="42.71563" lon="1.70577">
        <ele>1932</ele>
        <time>2019-11-16T09:50:33Z</time>
      </trkpt>
      <trkpt lat="42.71556" lon="1.70579">
        <ele>1931</ele>
        <time>2019-11-16T09:50:43Z</time>
      </trkpt>
      <trkpt lat="42.7155" lon="1.70581">
        <ele>1931</ele>
        <time>2019-11-16T09:50:59Z</time>
      </trkpt>
      <trkpt lat="42.71542" lon="1.70582">
        <ele>1931</ele>
        <time>2019-11-16T09:51:08Z</time>
      </trkpt>
      <trkpt lat="42.71537" lon="1.70579">
        <ele>1932</ele>
        <time>2019-11-16T09:51:14Z</time>
      </trkpt>
      <trkpt lat="42.71506" lon="1.70567">
        <ele>1933</ele>
        <time>2019-11-16T09:51:50Z</time>
      </trkpt>
      <trkpt lat="42.715" lon="1.70565">
        <ele>1934</ele>
        <time>2019-11-16T09:51:56Z</time>
      </trkpt>
      <trkpt lat="42.71495" lon="1.70563">
        <ele>1933</ele>
        <time>2019-11-16T09:52:05Z</time>
      </trkpt>
      <trkpt lat="42.71489" lon="1.70558">
        <ele>1933</ele>
        <time>2019-11-16T09:52:15Z</time>
      </trkpt>
      <trkpt lat="42.71482" lon="1.70557">
        <ele>1934</ele>
        <time>2019-11-16T09:53:06Z</time>
      </trkpt>
      <trkpt lat="42.71475" lon="1.70551">
        <ele>1935</ele>
        <time>2019-11-16T09:53:14Z</time>
      </trkpt>
      <trkpt lat="42.71455" lon="1.70554">
        <ele>1936</ele>
        <time>2019-11-16T09:53:37Z</time>
      </trkpt>
      <trkpt lat="42.71449" lon="1.70556">
        <ele>1937</ele>
        <time>2019-11-16T09:53:45Z</time>
      </trkpt>
      <trkpt lat="42.71435" lon="1.70556">
        <ele>1939</ele>
        <time>2019-11-16T09:53:59Z</time>
      </trkpt>
      <trkpt lat="42.71427" lon="1.70559">
        <ele>1939</ele>
        <time>2019-11-16T09:54:06Z</time>
      </trkpt>
      <trkpt lat="42.71414" lon="1.70559">
        <ele>1940</ele>
        <time>2019-11-16T09:54:17Z</time>
      </trkpt>
      <trkpt lat="42.71407" lon="1.70562">
        <ele>1940</ele>
        <time>2019-11-16T09:54:28Z</time>
      </trkpt>
      <trkpt lat="42.71393" lon="1.70564">
        <ele>1941</ele>
        <time>2019-11-16T09:54:42Z</time>
      </trkpt>
      <trkpt lat="42.71386" lon="1.70567">
        <ele>1941</ele>
        <time>2019-11-16T09:54:51Z</time>
      </trkpt>
      <trkpt lat="42.7138" lon="1.70567">
        <ele>1941</ele>
        <time>2019-11-16T09:54:55Z</time>
      </trkpt>
      <trkpt lat="42.71367" lon="1.70569">
        <ele>1940</ele>
        <time>2019-11-16T09:55:09Z</time>
      </trkpt>
      <trkpt lat="42.71359" lon="1.7057">
        <ele>1940</ele>
        <time>2019-11-16T09:55:17Z</time>
      </trkpt>
      <trkpt lat="42.71351" lon="1.70571">
        <ele>1940</ele>
        <time>2019-11-16T09:55:25Z</time>
      </trkpt>
      <trkpt lat="42.71346" lon="1.70575">
        <ele>1940</ele>
        <time>2019-11-16T09:55:32Z</time>
      </trkpt>
      <trkpt lat="42.71338" lon="1.70577">
        <ele>1940</ele>
        <time>2019-11-16T09:55:42Z</time>
      </trkpt>
      <trkpt lat="42.71331" lon="1.70581">
        <ele>1940</ele>
        <time>2019-11-16T09:55:55Z</time>
      </trkpt>
      <trkpt lat="42.71326" lon="1.70582">
        <ele>1940</ele>
        <time>2019-11-16T09:56:01Z</time>
      </trkpt>
      <trkpt lat="42.71313" lon="1.70587">
        <ele>1940</ele>
        <time>2019-11-16T09:56:19Z</time>
      </trkpt>
      <trkpt lat="42.71298" lon="1.70592">
        <ele>1939</ele>
        <time>2019-11-16T09:56:36Z</time>
      </trkpt>
      <trkpt lat="42.71291" lon="1.70596">
        <ele>1940</ele>
        <time>2019-11-16T09:56:43Z</time>
      </trkpt>
      <trkpt lat="42.71283" lon="1.70597">
        <ele>1940</ele>
        <time>2019-11-16T09:56:49Z</time>
      </trkpt>
      <trkpt lat="42.71276" lon="1.70599">
        <ele>1941</ele>
        <time>2019-11-16T09:56:57Z</time>
      </trkpt>
      <trkpt lat="42.71269" lon="1.70602">
        <ele>1942</ele>
        <time>2019-11-16T09:57:05Z</time>
      </trkpt>
      <trkpt lat="42.71257" lon="1.70604">
        <ele>1942</ele>
        <time>2019-11-16T09:57:27Z</time>
      </trkpt>
      <trkpt lat="42.71243" lon="1.7061">
        <ele>1943</ele>
        <time>2019-11-16T09:57:46Z</time>
      </trkpt>
      <trkpt lat="42.71237" lon="1.70612">
        <ele>1943</ele>
        <time>2019-11-16T09:57:52Z</time>
      </trkpt>
      <trkpt lat="42.71223" lon="1.70619">
        <ele>1944</ele>
        <time>2019-11-16T09:58:07Z</time>
      </trkpt>
      <trkpt lat="42.71216" lon="1.7062">
        <ele>1944</ele>
        <time>2019-11-16T09:58:15Z</time>
      </trkpt>
      <trkpt lat="42.71203" lon="1.70623">
        <ele>1944</ele>
        <time>2019-11-16T09:58:30Z</time>
      </trkpt>
      <trkpt lat="42.71195" lon="1.70627">
        <ele>1944</ele>
        <time>2019-11-16T09:58:40Z</time>
      </trkpt>
      <trkpt lat="42.7118" lon="1.70631">
        <ele>1945</ele>
        <time>2019-11-16T09:58:56Z</time>
      </trkpt>
      <trkpt lat="42.71172" lon="1.70631">
        <ele>1946</ele>
        <time>2019-11-16T09:59:03Z</time>
      </trkpt>
      <trkpt lat="42.71167" lon="1.70631">
        <ele>1947</ele>
        <time>2019-11-16T09:59:10Z</time>
      </trkpt>
      <trkpt lat="42.7116" lon="1.70629">
        <ele>1948</ele>
        <time>2019-11-16T09:59:20Z</time>
      </trkpt>
      <trkpt lat="42.71148" lon="1.70633">
        <ele>1950</ele>
        <time>2019-11-16T09:59:38Z</time>
      </trkpt>
      <trkpt lat="42.71144" lon="1.70639">
        <ele>1951</ele>
        <time>2019-11-16T09:59:59Z</time>
      </trkpt>
      <trkpt lat="42.71125" lon="1.70649">
        <ele>1951</ele>
        <time>2019-11-16T10:00:18Z</time>
      </trkpt>
      <trkpt lat="42.71114" lon="1.70652">
        <ele>1951</ele>
        <time>2019-11-16T10:00:27Z</time>
      </trkpt>
      <trkpt lat="42.71107" lon="1.70654">
        <ele>1951</ele>
        <time>2019-11-16T10:00:42Z</time>
      </trkpt>
      <trkpt lat="42.71097" lon="1.70664">
        <ele>1952</ele>
        <time>2019-11-16T10:00:55Z</time>
      </trkpt>
      <trkpt lat="42.71091" lon="1.70665">
        <ele>1953</ele>
        <time>2019-11-16T10:01:03Z</time>
      </trkpt>
      <trkpt lat="42.71085" lon="1.7067">
        <ele>1954</ele>
        <time>2019-11-16T10:01:08Z</time>
      </trkpt>
      <trkpt lat="42.71081" lon="1.70674">
        <ele>1954</ele>
        <time>2019-11-16T10:01:12Z</time>
      </trkpt>
      <trkpt lat="42.71075" lon="1.70679">
        <ele>1954</ele>
        <time>2019-11-16T10:01:19Z</time>
      </trkpt>
      <trkpt lat="42.71065" lon="1.70691">
        <ele>1954</ele>
        <time>2019-11-16T10:01:35Z</time>
      </trkpt>
      <trkpt lat="42.71061" lon="1.70696">
        <ele>1954</ele>
        <time>2019-11-16T10:01:40Z</time>
      </trkpt>
      <trkpt lat="42.71057" lon="1.70703">
        <ele>1954</ele>
        <time>2019-11-16T10:01:47Z</time>
      </trkpt>
      <trkpt lat="42.71055" lon="1.70712">
        <ele>1954</ele>
        <time>2019-11-16T10:01:54Z</time>
      </trkpt>
      <trkpt lat="42.71053" lon="1.70721">
        <ele>1955</ele>
        <time>2019-11-16T10:02:00Z</time>
      </trkpt>
      <trkpt lat="42.71049" lon="1.70739">
        <ele>1957</ele>
        <time>2019-11-16T10:02:16Z</time>
      </trkpt>
      <trkpt lat="42.71042" lon="1.70753">
        <ele>1955</ele>
        <time>2019-11-16T10:02:32Z</time>
      </trkpt>
      <trkpt lat="42.71038" lon="1.70759">
        <ele>1954</ele>
        <time>2019-11-16T10:02:44Z</time>
      </trkpt>
      <trkpt lat="42.71035" lon="1.70767">
        <ele>1953</ele>
        <time>2019-11-16T10:02:56Z</time>
      </trkpt>
      <trkpt lat="42.71033" lon="1.70777">
        <ele>1953</ele>
        <time>2019-11-16T10:03:07Z</time>
      </trkpt>
      <trkpt lat="42.71026" lon="1.7078">
        <ele>1953</ele>
        <time>2019-11-16T10:03:35Z</time>
      </trkpt>
      <trkpt lat="42.71025" lon="1.7079">
        <ele>1952</ele>
        <time>2019-11-16T10:03:46Z</time>
      </trkpt>
      <trkpt lat="42.71021" lon="1.70797">
        <ele>1951</ele>
        <time>2019-11-16T10:03:53Z</time>
      </trkpt>
      <trkpt lat="42.7101" lon="1.7082">
        <ele>1951</ele>
        <time>2019-11-16T10:04:16Z</time>
      </trkpt>
      <trkpt lat="42.71007" lon="1.70829">
        <ele>1951</ele>
        <time>2019-11-16T10:04:22Z</time>
      </trkpt>
      <trkpt lat="42.71003" lon="1.70838">
        <ele>1950</ele>
        <time>2019-11-16T10:05:00Z</time>
      </trkpt>
      <trkpt lat="42.70993" lon="1.70861">
        <ele>1949</ele>
        <time>2019-11-16T10:05:18Z</time>
      </trkpt>
      <trkpt lat="42.70988" lon="1.70867">
        <ele>1948</ele>
        <time>2019-11-16T10:05:29Z</time>
      </trkpt>
      <trkpt lat="42.70985" lon="1.70869">
        <ele>1948</ele>
        <time>2019-11-16T10:07:02Z</time>
      </trkpt>
      <trkpt lat="42.70981" lon="1.70876">
        <ele>1948</ele>
        <time>2019-11-16T10:07:07Z</time>
      </trkpt>
      <trkpt lat="42.70972" lon="1.70888">
        <ele>1947</ele>
        <time>2019-11-16T10:07:20Z</time>
      </trkpt>
      <trkpt lat="42.70968" lon="1.70894">
        <ele>1946</ele>
        <time>2019-11-16T10:07:26Z</time>
      </trkpt>
      <trkpt lat="42.70962" lon="1.709">
        <ele>1946</ele>
        <time>2019-11-16T10:07:33Z</time>
      </trkpt>
      <trkpt lat="42.70957" lon="1.70908">
        <ele>1946</ele>
        <time>2019-11-16T10:07:39Z</time>
      </trkpt>
      <trkpt lat="42.70951" lon="1.70912">
        <ele>1946</ele>
        <time>2019-11-16T10:07:44Z</time>
      </trkpt>
      <trkpt lat="42.70942" lon="1.70921">
        <ele>1947</ele>
        <time>2019-11-16T10:07:57Z</time>
      </trkpt>
      <trkpt lat="42.7093" lon="1.70926">
        <ele>1948</ele>
        <time>2019-11-16T10:08:07Z</time>
      </trkpt>
      <trkpt lat="42.70924" lon="1.70928">
        <ele>1948</ele>
        <time>2019-11-16T10:08:13Z</time>
      </trkpt>
      <trkpt lat="42.70911" lon="1.70933">
        <ele>1947</ele>
        <time>2019-11-16T10:08:25Z</time>
      </trkpt>
      <trkpt lat="42.70905" lon="1.70938">
        <ele>1947</ele>
        <time>2019-11-16T10:08:35Z</time>
      </trkpt>
      <trkpt lat="42.709" lon="1.70943">
        <ele>1947</ele>
        <time>2019-11-16T10:08:41Z</time>
      </trkpt>
      <trkpt lat="42.70883" lon="1.70949">
        <ele>1946</ele>
        <time>2019-11-16T10:08:55Z</time>
      </trkpt>
      <trkpt lat="42.7087" lon="1.70953">
        <ele>1946</ele>
        <time>2019-11-16T10:09:08Z</time>
      </trkpt>
      <trkpt lat="42.70863" lon="1.70957">
        <ele>1945</ele>
        <time>2019-11-16T10:09:17Z</time>
      </trkpt>
      <trkpt lat="42.70833" lon="1.70972">
        <ele>1944</ele>
        <time>2019-11-16T10:09:48Z</time>
      </trkpt>
      <trkpt lat="42.70816" lon="1.70984">
        <ele>1944</ele>
        <time>2019-11-16T10:10:05Z</time>
      </trkpt>
      <trkpt lat="42.70809" lon="1.70984">
        <ele>1943</ele>
        <time>2019-11-16T10:10:14Z</time>
      </trkpt>
      <trkpt lat="42.70801" lon="1.70983">
        <ele>1943</ele>
        <time>2019-11-16T10:10:21Z</time>
      </trkpt>
      <trkpt lat="42.70796" lon="1.70985">
        <ele>1943</ele>
        <time>2019-11-16T10:10:27Z</time>
      </trkpt>
      <trkpt lat="42.70766" lon="1.70984">
        <ele>1942</ele>
        <time>2019-11-16T10:10:59Z</time>
      </trkpt>
      <trkpt lat="42.7076" lon="1.70982">
        <ele>1941</ele>
        <time>2019-11-16T10:11:04Z</time>
      </trkpt>
      <trkpt lat="42.70746" lon="1.70982">
        <ele>1939</ele>
        <time>2019-11-16T10:11:30Z</time>
      </trkpt>
      <trkpt lat="42.7074" lon="1.70982">
        <ele>1938</ele>
        <time>2019-11-16T10:11:37Z</time>
      </trkpt>
      <trkpt lat="42.70721" lon="1.7098">
        <ele>1936</ele>
        <time>2019-11-16T10:12:03Z</time>
      </trkpt>
      <trkpt lat="42.70715" lon="1.70982">
        <ele>1935</ele>
        <time>2019-11-16T10:12:13Z</time>
      </trkpt>
      <trkpt lat="42.70705" lon="1.70988">
        <ele>1934</ele>
        <time>2019-11-16T10:12:34Z</time>
      </trkpt>
      <trkpt lat="42.70674" lon="1.7099">
        <ele>1933</ele>
        <time>2019-11-16T10:13:13Z</time>
      </trkpt>
      <trkpt lat="42.70662" lon="1.70992">
        <ele>1934</ele>
        <time>2019-11-16T10:13:25Z</time>
      </trkpt>
      <trkpt lat="42.70653" lon="1.70998">
        <ele>1932</ele>
        <time>2019-11-16T10:14:09Z</time>
      </trkpt>
      <trkpt lat="42.70646" lon="1.71004">
        <ele>1933</ele>
        <time>2019-11-16T10:14:17Z</time>
      </trkpt>
      <trkpt lat="42.70635" lon="1.71008">
        <ele>1933</ele>
        <time>2019-11-16T10:14:30Z</time>
      </trkpt>
      <trkpt lat="42.7063" lon="1.71012">
        <ele>1933</ele>
        <time>2019-11-16T10:14:36Z</time>
      </trkpt>
      <trkpt lat="42.70626" lon="1.71019">
        <ele>1933</ele>
        <time>2019-11-16T10:15:05Z</time>
      </trkpt>
      <trkpt lat="42.7062" lon="1.71022">
        <ele>1934</ele>
        <time>2019-11-16T10:15:11Z</time>
      </trkpt>
      <trkpt lat="42.70604" lon="1.71033">
        <ele>1934</ele>
        <time>2019-11-16T10:15:30Z</time>
      </trkpt>
      <trkpt lat="42.70596" lon="1.71043">
        <ele>1934</ele>
        <time>2019-11-16T10:15:44Z</time>
      </trkpt>
      <trkpt lat="42.70594" lon="1.71051">
        <ele>1934</ele>
        <time>2019-11-16T10:15:52Z</time>
      </trkpt>
      <trkpt lat="42.7059" lon="1.71057">
        <ele>1933</ele>
        <time>2019-11-16T10:16:00Z</time>
      </trkpt>
      <trkpt lat="42.70587" lon="1.71063">
        <ele>1934</ele>
        <time>2019-11-16T10:16:07Z</time>
      </trkpt>
      <trkpt lat="42.70583" lon="1.7107">
        <ele>1934</ele>
        <time>2019-11-16T10:16:13Z</time>
      </trkpt>
      <trkpt lat="42.70575" lon="1.71082">
        <ele>1934</ele>
        <time>2019-11-16T10:16:32Z</time>
      </trkpt>
      <trkpt lat="42.70572" lon="1.71088">
        <ele>1933</ele>
        <time>2019-11-16T10:16:41Z</time>
      </trkpt>
      <trkpt lat="42.70565" lon="1.71102">
        <ele>1933</ele>
        <time>2019-11-16T10:16:53Z</time>
      </trkpt>
      <trkpt lat="42.70555" lon="1.71114">
        <ele>1933</ele>
        <time>2019-11-16T10:17:10Z</time>
      </trkpt>
      <trkpt lat="42.70552" lon="1.7112">
        <ele>1933</ele>
        <time>2019-11-16T10:17:17Z</time>
      </trkpt>
      <trkpt lat="42.70549" lon="1.71127">
        <ele>1934</ele>
        <time>2019-11-16T10:17:24Z</time>
      </trkpt>
      <trkpt lat="42.70546" lon="1.71134">
        <ele>1934</ele>
        <time>2019-11-16T10:17:30Z</time>
      </trkpt>
      <trkpt lat="42.70541" lon="1.71139">
        <ele>1934</ele>
        <time>2019-11-16T10:17:39Z</time>
      </trkpt>
      <trkpt lat="42.70538" lon="1.71146">
        <ele>1934</ele>
        <time>2019-11-16T10:17:47Z</time>
      </trkpt>
      <trkpt lat="42.70528" lon="1.71152">
        <ele>1936</ele>
        <time>2019-11-16T10:18:02Z</time>
      </trkpt>
      <trkpt lat="42.70522" lon="1.71153">
        <ele>1936</ele>
        <time>2019-11-16T10:18:07Z</time>
      </trkpt>
      <trkpt lat="42.70513" lon="1.71162">
        <ele>1937</ele>
        <time>2019-11-16T10:18:25Z</time>
      </trkpt>
      <trkpt lat="42.70502" lon="1.7118">
        <ele>1936</ele>
        <time>2019-11-16T10:18:50Z</time>
      </trkpt>
      <trkpt lat="42.70495" lon="1.7119">
        <ele>1936</ele>
        <time>2019-11-16T10:19:03Z</time>
      </trkpt>
      <trkpt lat="42.70491" lon="1.71195">
        <ele>1936</ele>
        <time>2019-11-16T10:19:10Z</time>
      </trkpt>
      <trkpt lat="42.70468" lon="1.71208">
        <ele>1938</ele>
        <time>2019-11-16T10:19:42Z</time>
      </trkpt>
      <trkpt lat="42.70456" lon="1.71211">
        <ele>1939</ele>
        <time>2019-11-16T10:19:57Z</time>
      </trkpt>
      <trkpt lat="42.70451" lon="1.71214">
        <ele>1940</ele>
        <time>2019-11-16T10:20:05Z</time>
      </trkpt>
      <trkpt lat="42.70444" lon="1.71216">
        <ele>1941</ele>
        <time>2019-11-16T10:20:14Z</time>
      </trkpt>
      <trkpt lat="42.70433" lon="1.71218">
        <ele>1942</ele>
        <time>2019-11-16T10:20:25Z</time>
      </trkpt>
      <trkpt lat="42.70427" lon="1.71223">
        <ele>1942</ele>
        <time>2019-11-16T10:20:35Z</time>
      </trkpt>
      <trkpt lat="42.70423" lon="1.7123">
        <ele>1943</ele>
        <time>2019-11-16T10:20:57Z</time>
      </trkpt>
      <trkpt lat="42.70416" lon="1.71246">
        <ele>1943</ele>
        <time>2019-11-16T10:21:16Z</time>
      </trkpt>
      <trkpt lat="42.7041" lon="1.71251">
        <ele>1943</ele>
        <time>2019-11-16T10:21:34Z</time>
      </trkpt>
      <trkpt lat="42.70406" lon="1.71257">
        <ele>1943</ele>
        <time>2019-11-16T10:21:47Z</time>
      </trkpt>
      <trkpt lat="42.70396" lon="1.71266">
        <ele>1944</ele>
        <time>2019-11-16T10:22:23Z</time>
      </trkpt>
      <trkpt lat="42.70391" lon="1.71269">
        <ele>1944</ele>
        <time>2019-11-16T10:22:29Z</time>
      </trkpt>
      <trkpt lat="42.70386" lon="1.71272">
        <ele>1945</ele>
        <time>2019-11-16T10:22:38Z</time>
      </trkpt>
      <trkpt lat="42.7038" lon="1.71272">
        <ele>1945</ele>
        <time>2019-11-16T10:22:44Z</time>
      </trkpt>
      <trkpt lat="42.70374" lon="1.71273">
        <ele>1946</ele>
        <time>2019-11-16T10:22:49Z</time>
      </trkpt>
      <trkpt lat="42.70367" lon="1.71271">
        <ele>1946</ele>
        <time>2019-11-16T10:23:06Z</time>
      </trkpt>
      <trkpt lat="42.70362" lon="1.71277">
        <ele>1948</ele>
        <time>2019-11-16T10:23:21Z</time>
      </trkpt>
      <trkpt lat="42.70354" lon="1.71279">
        <ele>1949</ele>
        <time>2019-11-16T10:23:40Z</time>
      </trkpt>
      <trkpt lat="42.70349" lon="1.71281">
        <ele>1951</ele>
        <time>2019-11-16T10:23:49Z</time>
      </trkpt>
      <trkpt lat="42.70332" lon="1.71289">
        <ele>1951</ele>
        <time>2019-11-16T10:24:08Z</time>
      </trkpt>
      <trkpt lat="42.70315" lon="1.71299">
        <ele>1950</ele>
        <time>2019-11-16T10:24:34Z</time>
      </trkpt>
      <trkpt lat="42.7031" lon="1.71305">
        <ele>1950</ele>
        <time>2019-11-16T10:24:44Z</time>
      </trkpt>
      <trkpt lat="42.703" lon="1.71313">
        <ele>1950</ele>
        <time>2019-11-16T10:24:58Z</time>
      </trkpt>
      <trkpt lat="42.70296" lon="1.71319">
        <ele>1950</ele>
        <time>2019-11-16T10:25:08Z</time>
      </trkpt>
      <trkpt lat="42.70291" lon="1.71322">
        <ele>1950</ele>
        <time>2019-11-16T10:25:17Z</time>
      </trkpt>
      <trkpt lat="42.70284" lon="1.71326">
        <ele>1951</ele>
        <time>2019-11-16T10:25:27Z</time>
      </trkpt>
      <trkpt lat="42.70276" lon="1.71338">
        <ele>1953</ele>
        <time>2019-11-16T10:25:48Z</time>
      </trkpt>
      <trkpt lat="42.70278" lon="1.71335">
        <ele>1957</ele>
        <time>2019-11-16T10:27:21Z</time>
      </trkpt>
      <trkpt lat="42.70281" lon="1.71342">
        <ele>1957</ele>
        <time>2019-11-16T10:30:09Z</time>
      </trkpt>
      <trkpt lat="42.70274" lon="1.71345">
        <ele>1957</ele>
        <time>2019-11-16T10:30:28Z</time>
      </trkpt>
      <trkpt lat="42.70269" lon="1.71352">
        <ele>1957</ele>
        <time>2019-11-16T10:30:36Z</time>
      </trkpt>
      <trkpt lat="42.70266" lon="1.71366">
        <ele>1956</ele>
        <time>2019-11-16T10:30:48Z</time>
      </trkpt>
      <trkpt lat="42.70265" lon="1.71393">
        <ele>1957</ele>
        <time>2019-11-16T10:31:13Z</time>
      </trkpt>
      <trkpt lat="42.70267" lon="1.714">
        <ele>1958</ele>
        <time>2019-11-16T10:31:19Z</time>
      </trkpt>
      <trkpt lat="42.7027" lon="1.71407">
        <ele>1957</ele>
        <time>2019-11-16T10:31:30Z</time>
      </trkpt>
      <trkpt lat="42.70273" lon="1.71415">
        <ele>1957</ele>
        <time>2019-11-16T10:31:36Z</time>
      </trkpt>
      <trkpt lat="42.70279" lon="1.7143">
        <ele>1957</ele>
        <time>2019-11-16T10:31:52Z</time>
      </trkpt>
      <trkpt lat="42.70282" lon="1.71437">
        <ele>1955</ele>
        <time>2019-11-16T10:32:03Z</time>
      </trkpt>
      <trkpt lat="42.70285" lon="1.71447">
        <ele>1955</ele>
        <time>2019-11-16T10:32:13Z</time>
      </trkpt>
      <trkpt lat="42.7029" lon="1.71455">
        <ele>1954</ele>
        <time>2019-11-16T10:32:47Z</time>
      </trkpt>
      <trkpt lat="42.70294" lon="1.71477">
        <ele>1954</ele>
        <time>2019-11-16T10:33:03Z</time>
      </trkpt>
      <trkpt lat="42.70292" lon="1.71494">
        <ele>1954</ele>
        <time>2019-11-16T10:33:16Z</time>
      </trkpt>
      <trkpt lat="42.70291" lon="1.71502">
        <ele>1954</ele>
        <time>2019-11-16T10:33:25Z</time>
      </trkpt>
      <trkpt lat="42.70292" lon="1.71513">
        <ele>1954</ele>
        <time>2019-11-16T10:33:33Z</time>
      </trkpt>
      <trkpt lat="42.7029" lon="1.71523">
        <ele>1954</ele>
        <time>2019-11-16T10:33:45Z</time>
      </trkpt>
      <trkpt lat="42.70287" lon="1.71533">
        <ele>1954</ele>
        <time>2019-11-16T10:33:56Z</time>
      </trkpt>
      <trkpt lat="42.7028" lon="1.7156">
        <ele>1952</ele>
        <time>2019-11-16T10:34:27Z</time>
      </trkpt>
      <trkpt lat="42.70277" lon="1.71566">
        <ele>1952</ele>
        <time>2019-11-16T10:34:36Z</time>
      </trkpt>
      <trkpt lat="42.70271" lon="1.71572">
        <ele>1952</ele>
        <time>2019-11-16T10:34:47Z</time>
      </trkpt>
      <trkpt lat="42.70267" lon="1.71589">
        <ele>1951</ele>
        <time>2019-11-16T10:35:10Z</time>
      </trkpt>
      <trkpt lat="42.70265" lon="1.71599">
        <ele>1951</ele>
        <time>2019-11-16T10:35:19Z</time>
      </trkpt>
      <trkpt lat="42.70264" lon="1.71606">
        <ele>1951</ele>
        <time>2019-11-16T10:35:23Z</time>
      </trkpt>
      <trkpt lat="42.7026" lon="1.71615">
        <ele>1951</ele>
        <time>2019-11-16T10:35:34Z</time>
      </trkpt>
      <trkpt lat="42.70256" lon="1.71621">
        <ele>1951</ele>
        <time>2019-11-16T10:35:40Z</time>
      </trkpt>
      <trkpt lat="42.70252" lon="1.71629">
        <ele>1951</ele>
        <time>2019-11-16T10:35:46Z</time>
      </trkpt>
      <trkpt lat="42.70248" lon="1.71635">
        <ele>1952</ele>
        <time>2019-11-16T10:35:52Z</time>
      </trkpt>
      <trkpt lat="42.70245" lon="1.71642">
        <ele>1952</ele>
        <time>2019-11-16T10:36:00Z</time>
      </trkpt>
      <trkpt lat="42.70233" lon="1.7166">
        <ele>1953</ele>
        <time>2019-11-16T10:36:22Z</time>
      </trkpt>
      <trkpt lat="42.7023" lon="1.71667">
        <ele>1952</ele>
        <time>2019-11-16T10:36:33Z</time>
      </trkpt>
      <trkpt lat="42.70212" lon="1.71687">
        <ele>1950</ele>
        <time>2019-11-16T10:36:59Z</time>
      </trkpt>
      <trkpt lat="42.70195" lon="1.717">
        <ele>1949</ele>
        <time>2019-11-16T10:37:19Z</time>
      </trkpt>
      <trkpt lat="42.7019" lon="1.71704">
        <ele>1949</ele>
        <time>2019-11-16T10:37:28Z</time>
      </trkpt>
      <trkpt lat="42.70181" lon="1.71706">
        <ele>1949</ele>
        <time>2019-11-16T10:37:35Z</time>
      </trkpt>
      <trkpt lat="42.70177" lon="1.71709">
        <ele>1949</ele>
        <time>2019-11-16T10:37:40Z</time>
      </trkpt>
      <trkpt lat="42.7017" lon="1.71711">
        <ele>1949</ele>
        <time>2019-11-16T10:37:47Z</time>
      </trkpt>
      <trkpt lat="42.70146" lon="1.71719">
        <ele>1947</ele>
        <time>2019-11-16T10:38:19Z</time>
      </trkpt>
      <trkpt lat="42.70138" lon="1.71721">
        <ele>1947</ele>
        <time>2019-11-16T10:38:27Z</time>
      </trkpt>
      <trkpt lat="42.70133" lon="1.7172">
        <ele>1946</ele>
        <time>2019-11-16T10:38:32Z</time>
      </trkpt>
      <trkpt lat="42.70128" lon="1.71719">
        <ele>1946</ele>
        <time>2019-11-16T10:38:38Z</time>
      </trkpt>
      <trkpt lat="42.70109" lon="1.71718">
        <ele>1944</ele>
        <time>2019-11-16T10:39:01Z</time>
      </trkpt>
      <trkpt lat="42.70103" lon="1.71718">
        <ele>1944</ele>
        <time>2019-11-16T10:39:06Z</time>
      </trkpt>
      <trkpt lat="42.70097" lon="1.71718">
        <ele>1944</ele>
        <time>2019-11-16T10:39:12Z</time>
      </trkpt>
      <trkpt lat="42.70092" lon="1.71721">
        <ele>1944</ele>
        <time>2019-11-16T10:39:19Z</time>
      </trkpt>
      <trkpt lat="42.70074" lon="1.71724">
        <ele>1942</ele>
        <time>2019-11-16T10:39:41Z</time>
      </trkpt>
      <trkpt lat="42.7007" lon="1.71725">
        <ele>1942</ele>
        <time>2019-11-16T10:39:46Z</time>
      </trkpt>
      <trkpt lat="42.70065" lon="1.71725">
        <ele>1941</ele>
        <time>2019-11-16T10:39:55Z</time>
      </trkpt>
      <trkpt lat="42.70059" lon="1.71725">
        <ele>1941</ele>
        <time>2019-11-16T10:40:03Z</time>
      </trkpt>
      <trkpt lat="42.70044" lon="1.71726">
        <ele>1940</ele>
        <time>2019-11-16T10:40:27Z</time>
      </trkpt>
      <trkpt lat="42.70038" lon="1.7173">
        <ele>1940</ele>
        <time>2019-11-16T10:40:32Z</time>
      </trkpt>
      <trkpt lat="42.70033" lon="1.71729">
        <ele>1940</ele>
        <time>2019-11-16T10:40:38Z</time>
      </trkpt>
      <trkpt lat="42.70027" lon="1.71729">
        <ele>1939</ele>
        <time>2019-11-16T10:40:47Z</time>
      </trkpt>
      <trkpt lat="42.70022" lon="1.71731">
        <ele>1939</ele>
        <time>2019-11-16T10:40:54Z</time>
      </trkpt>
      <trkpt lat="42.70016" lon="1.71732">
        <ele>1939</ele>
        <time>2019-11-16T10:41:01Z</time>
      </trkpt>
      <trkpt lat="42.70005" lon="1.7173">
        <ele>1939</ele>
        <time>2019-11-16T10:41:13Z</time>
      </trkpt>
      <trkpt lat="42.69999" lon="1.71727">
        <ele>1939</ele>
        <time>2019-11-16T10:41:20Z</time>
      </trkpt>
      <trkpt lat="42.69994" lon="1.71725">
        <ele>1940</ele>
        <time>2019-11-16T10:41:31Z</time>
      </trkpt>
      <trkpt lat="42.69988" lon="1.71726">
        <ele>1940</ele>
        <time>2019-11-16T10:41:41Z</time>
      </trkpt>
      <trkpt lat="42.69983" lon="1.71727">
        <ele>1940</ele>
        <time>2019-11-16T10:41:51Z</time>
      </trkpt>
      <trkpt lat="42.69978" lon="1.71729">
        <ele>1939</ele>
        <time>2019-11-16T10:41:59Z</time>
      </trkpt>
      <trkpt lat="42.69972" lon="1.71728">
        <ele>1939</ele>
        <time>2019-11-16T10:42:05Z</time>
      </trkpt>
      <trkpt lat="42.69961" lon="1.71731">
        <ele>1941</ele>
        <time>2019-11-16T10:42:22Z</time>
      </trkpt>
      <trkpt lat="42.69956" lon="1.71732">
        <ele>1941</ele>
        <time>2019-11-16T10:42:30Z</time>
      </trkpt>
      <trkpt lat="42.69952" lon="1.71734">
        <ele>1942</ele>
        <time>2019-11-16T10:48:09Z</time>
      </trkpt>
      <trkpt lat="42.69948" lon="1.71739">
        <ele>1942</ele>
        <time>2019-11-16T10:48:14Z</time>
      </trkpt>
      <trkpt lat="42.69943" lon="1.71745">
        <ele>1942</ele>
        <time>2019-11-16T10:48:22Z</time>
      </trkpt>
      <trkpt lat="42.69939" lon="1.71751">
        <ele>1941</ele>
        <time>2019-11-16T10:48:27Z</time>
      </trkpt>
      <trkpt lat="42.69923" lon="1.71783">
        <ele>1938</ele>
        <time>2019-11-16T10:49:04Z</time>
      </trkpt>
      <trkpt lat="42.69918" lon="1.71791">
        <ele>1937</ele>
        <time>2019-11-16T10:49:14Z</time>
      </trkpt>
      <trkpt lat="42.69911" lon="1.71804">
        <ele>1938</ele>
        <time>2019-11-16T10:49:31Z</time>
      </trkpt>
      <trkpt lat="42.69902" lon="1.71828">
        <ele>1939</ele>
        <time>2019-11-16T10:50:06Z</time>
      </trkpt>
      <trkpt lat="42.699" lon="1.71836">
        <ele>1940</ele>
        <time>2019-11-16T10:50:16Z</time>
      </trkpt>
      <trkpt lat="42.69896" lon="1.71845">
        <ele>1940</ele>
        <time>2019-11-16T10:50:29Z</time>
      </trkpt>
      <trkpt lat="42.69894" lon="1.71852">
        <ele>1941</ele>
        <time>2019-11-16T10:50:37Z</time>
      </trkpt>
      <trkpt lat="42.69891" lon="1.7186">
        <ele>1941</ele>
        <time>2019-11-16T10:50:47Z</time>
      </trkpt>
      <trkpt lat="42.69886" lon="1.71867">
        <ele>1941</ele>
        <time>2019-11-16T10:50:58Z</time>
      </trkpt>
      <trkpt lat="42.69883" lon="1.71873">
        <ele>1941</ele>
        <time>2019-11-16T10:51:05Z</time>
      </trkpt>
      <trkpt lat="42.69881" lon="1.7188">
        <ele>1941</ele>
        <time>2019-11-16T10:51:13Z</time>
      </trkpt>
      <trkpt lat="42.69877" lon="1.71886">
        <ele>1941</ele>
        <time>2019-11-16T10:51:21Z</time>
      </trkpt>
      <trkpt lat="42.69874" lon="1.71893">
        <ele>1943</ele>
        <time>2019-11-16T10:51:28Z</time>
      </trkpt>
      <trkpt lat="42.69862" lon="1.71913">
        <ele>1944</ele>
        <time>2019-11-16T10:51:55Z</time>
      </trkpt>
      <trkpt lat="42.6986" lon="1.71924">
        <ele>1945</ele>
        <time>2019-11-16T10:52:17Z</time>
      </trkpt>
      <trkpt lat="42.69857" lon="1.71933">
        <ele>1946</ele>
        <time>2019-11-16T10:52:27Z</time>
      </trkpt>
      <trkpt lat="42.69854" lon="1.71942">
        <ele>1946</ele>
        <time>2019-11-16T10:52:38Z</time>
      </trkpt>
      <trkpt lat="42.6985" lon="1.71951">
        <ele>1946</ele>
        <time>2019-11-16T10:52:49Z</time>
      </trkpt>
      <trkpt lat="42.69848" lon="1.71958">
        <ele>1946</ele>
        <time>2019-11-16T10:52:58Z</time>
      </trkpt>
      <trkpt lat="42.69846" lon="1.71966">
        <ele>1947</ele>
        <time>2019-11-16T10:53:05Z</time>
      </trkpt>
      <trkpt lat="42.69845" lon="1.71975">
        <ele>1947</ele>
        <time>2019-11-16T10:53:15Z</time>
      </trkpt>
      <trkpt lat="42.69842" lon="1.71985">
        <ele>1948</ele>
        <time>2019-11-16T10:53:26Z</time>
      </trkpt>
      <trkpt lat="42.69841" lon="1.71992">
        <ele>1948</ele>
        <time>2019-11-16T10:53:35Z</time>
      </trkpt>
      <trkpt lat="42.69838" lon="1.71999">
        <ele>1949</ele>
        <time>2019-11-16T10:53:43Z</time>
      </trkpt>
      <trkpt lat="42.69831" lon="1.72024">
        <ele>1951</ele>
        <time>2019-11-16T10:54:14Z</time>
      </trkpt>
      <trkpt lat="42.69825" lon="1.72052">
        <ele>1955</ele>
        <time>2019-11-16T10:55:20Z</time>
      </trkpt>
      <trkpt lat="42.69819" lon="1.72077">
        <ele>1957</ele>
        <time>2019-11-16T10:55:48Z</time>
      </trkpt>
      <trkpt lat="42.69817" lon="1.72084">
        <ele>1957</ele>
        <time>2019-11-16T10:55:58Z</time>
      </trkpt>
      <trkpt lat="42.69816" lon="1.72093">
        <ele>1957</ele>
        <time>2019-11-16T10:56:09Z</time>
      </trkpt>
      <trkpt lat="42.69815" lon="1.72104">
        <ele>1958</ele>
        <time>2019-11-16T10:56:21Z</time>
      </trkpt>
      <trkpt lat="42.69813" lon="1.72113">
        <ele>1959</ele>
        <time>2019-11-16T10:56:40Z</time>
      </trkpt>
      <trkpt lat="42.69813" lon="1.72124">
        <ele>1960</ele>
        <time>2019-11-16T10:56:52Z</time>
      </trkpt>
      <trkpt lat="42.69812" lon="1.72133">
        <ele>1962</ele>
        <time>2019-11-16T10:57:06Z</time>
      </trkpt>
      <trkpt lat="42.69811" lon="1.72142">
        <ele>1963</ele>
        <time>2019-11-16T10:57:20Z</time>
      </trkpt>
      <trkpt lat="42.69809" lon="1.72152">
        <ele>1963</ele>
        <time>2019-11-16T10:57:32Z</time>
      </trkpt>
      <trkpt lat="42.69807" lon="1.72159">
        <ele>1964</ele>
        <time>2019-11-16T10:57:41Z</time>
      </trkpt>
      <trkpt lat="42.69803" lon="1.72169">
        <ele>1964</ele>
        <time>2019-11-16T10:57:52Z</time>
      </trkpt>
      <trkpt lat="42.69802" lon="1.72176">
        <ele>1967</ele>
        <time>2019-11-16T10:58:37Z</time>
      </trkpt>
      <trkpt lat="42.69797" lon="1.72179">
        <ele>1968</ele>
        <time>2019-11-16T10:59:34Z</time>
      </trkpt>
      <trkpt lat="42.69793" lon="1.72188">
        <ele>1974</ele>
        <time>2019-11-16T11:00:45Z</time>
      </trkpt>
      <trkpt lat="42.69792" lon="1.72196">
        <ele>1975</ele>
        <time>2019-11-16T11:00:55Z</time>
      </trkpt>
      <trkpt lat="42.69788" lon="1.72205">
        <ele>1976</ele>
        <time>2019-11-16T11:01:03Z</time>
      </trkpt>
      <trkpt lat="42.69784" lon="1.7222">
        <ele>1977</ele>
        <time>2019-11-16T11:01:25Z</time>
      </trkpt>
      <trkpt lat="42.69783" lon="1.72231">
        <ele>1978</ele>
        <time>2019-11-16T11:01:39Z</time>
      </trkpt>
      <trkpt lat="42.69781" lon="1.7224">
        <ele>1978</ele>
        <time>2019-11-16T11:01:55Z</time>
      </trkpt>
      <trkpt lat="42.69781" lon="1.72248">
        <ele>1977</ele>
        <time>2019-11-16T11:02:06Z</time>
      </trkpt>
      <trkpt lat="42.69778" lon="1.72257">
        <ele>1976</ele>
        <time>2019-11-16T11:02:21Z</time>
      </trkpt>
      <trkpt lat="42.6977" lon="1.72273">
        <ele>1977</ele>
        <time>2019-11-16T11:02:46Z</time>
      </trkpt>
      <trkpt lat="42.69768" lon="1.72279">
        <ele>1978</ele>
        <time>2019-11-16T11:02:56Z</time>
      </trkpt>
      <trkpt lat="42.69761" lon="1.72295">
        <ele>1981</ele>
        <time>2019-11-16T11:03:23Z</time>
      </trkpt>
      <trkpt lat="42.69754" lon="1.72316">
        <ele>1984</ele>
        <time>2019-11-16T11:03:50Z</time>
      </trkpt>
      <trkpt lat="42.6975" lon="1.72324">
        <ele>1984</ele>
        <time>2019-11-16T11:03:57Z</time>
      </trkpt>
      <trkpt lat="42.69748" lon="1.72333">
        <ele>1984</ele>
        <time>2019-11-16T11:04:08Z</time>
      </trkpt>
      <trkpt lat="42.69743" lon="1.7234">
        <ele>1984</ele>
        <time>2019-11-16T11:04:19Z</time>
      </trkpt>
      <trkpt lat="42.69736" lon="1.72343">
        <ele>1985</ele>
        <time>2019-11-16T11:04:34Z</time>
      </trkpt>
      <trkpt lat="42.69731" lon="1.72347">
        <ele>1986</ele>
        <time>2019-11-16T11:04:48Z</time>
      </trkpt>
      <trkpt lat="42.69722" lon="1.72348">
        <ele>1989</ele>
        <time>2019-11-16T11:05:00Z</time>
      </trkpt>
      <trkpt lat="42.69703" lon="1.72358">
        <ele>1993</ele>
        <time>2019-11-16T11:05:34Z</time>
      </trkpt>
      <trkpt lat="42.69698" lon="1.7236">
        <ele>1994</ele>
        <time>2019-11-16T11:05:44Z</time>
      </trkpt>
      <trkpt lat="42.69701" lon="1.72365">
        <ele>1997</ele>
        <time>2019-11-16T11:06:27Z</time>
      </trkpt>
      <trkpt lat="42.69692" lon="1.72352">
        <ele>2000</ele>
        <time>2019-11-16T11:08:21Z</time>
      </trkpt>
      <trkpt lat="42.6968" lon="1.7234">
        <ele>2006</ele>
        <time>2019-11-16T11:08:31Z</time>
      </trkpt>
      <trkpt lat="42.69672" lon="1.72342">
        <ele>2012</ele>
        <time>2019-11-16T11:08:50Z</time>
      </trkpt>
      <trkpt lat="42.6967" lon="1.72336">
        <ele>2008</ele>
        <time>2019-11-16T11:10:15Z</time>
      </trkpt>
      <trkpt lat="42.69668" lon="1.72328">
        <ele>2002</ele>
        <time>2019-11-16T11:11:05Z</time>
      </trkpt>
      <trkpt lat="42.69674" lon="1.72328">
        <ele>2002</ele>
        <time>2019-11-16T11:11:31Z</time>
      </trkpt>
      <trkpt lat="42.69672" lon="1.72327">
        <ele>2002</ele>
        <time>2019-11-16T11:13:45Z</time>
      </trkpt>
      <trkpt lat="42.69671" lon="1.72329">
        <ele>2002</ele>
        <time>2019-11-16T11:14:49Z</time>
      </trkpt>
      <trkpt lat="42.69667" lon="1.7233">
        <ele>2002</ele>
        <time>2019-11-16T11:15:05Z</time>
      </trkpt>
      <trkpt lat="42.69664" lon="1.72328">
        <ele>2004</ele>
        <time>2019-11-16T11:15:19Z</time>
      </trkpt>
      <trkpt lat="42.6967" lon="1.72328">
        <ele>2004</ele>
        <time>2019-11-16T11:42:58Z</time>
      </trkpt>
      <trkpt lat="42.6967" lon="1.72328">
        <ele>2004</ele>
        <time>2019-11-16T11:42:59Z</time>
      </trkpt>
      <trkpt lat="42.69676" lon="1.72336">
        <ele>2004</ele>
        <time>2019-11-16T11:44:54Z</time>
      </trkpt>
      <trkpt lat="42.69681" lon="1.72338">
        <ele>2004</ele>
        <time>2019-11-16T11:44:59Z</time>
      </trkpt>
      <trkpt lat="42.69692" lon="1.72347">
        <ele>2004</ele>
        <time>2019-11-16T11:45:12Z</time>
      </trkpt>
      <trkpt lat="42.69695" lon="1.72356">
        <ele>2004</ele>
        <time>2019-11-16T11:45:23Z</time>
      </trkpt>
      <trkpt lat="42.69705" lon="1.72355">
        <ele>2003</ele>
        <time>2019-11-16T11:45:51Z</time>
      </trkpt>
      <trkpt lat="42.6971" lon="1.72352">
        <ele>2003</ele>
        <time>2019-11-16T11:45:55Z</time>
      </trkpt>
      <trkpt lat="42.69716" lon="1.72348">
        <ele>2002</ele>
        <time>2019-11-16T11:46:01Z</time>
      </trkpt>
      <trkpt lat="42.69725" lon="1.72339">
        <ele>2001</ele>
        <time>2019-11-16T11:46:11Z</time>
      </trkpt>
      <trkpt lat="42.6974" lon="1.72326">
        <ele>1999</ele>
        <time>2019-11-16T11:46:32Z</time>
      </trkpt>
      <trkpt lat="42.69749" lon="1.72315">
        <ele>1997</ele>
        <time>2019-11-16T11:46:44Z</time>
      </trkpt>
      <trkpt lat="42.69763" lon="1.72282">
        <ele>1994</ele>
        <time>2019-11-16T11:47:14Z</time>
      </trkpt>
      <trkpt lat="42.69769" lon="1.72269">
        <ele>1993</ele>
        <time>2019-11-16T11:47:24Z</time>
      </trkpt>
      <trkpt lat="42.69773" lon="1.72253">
        <ele>1992</ele>
        <time>2019-11-16T11:47:36Z</time>
      </trkpt>
      <trkpt lat="42.69775" lon="1.72246">
        <ele>1992</ele>
        <time>2019-11-16T11:47:44Z</time>
      </trkpt>
      <trkpt lat="42.69787" lon="1.72211">
        <ele>1988</ele>
        <time>2019-11-16T11:48:15Z</time>
      </trkpt>
      <trkpt lat="42.69792" lon="1.72196">
        <ele>1986</ele>
        <time>2019-11-16T11:48:30Z</time>
      </trkpt>
      <trkpt lat="42.69793" lon="1.72188">
        <ele>1985</ele>
        <time>2019-11-16T11:48:38Z</time>
      </trkpt>
      <trkpt lat="42.69796" lon="1.72182">
        <ele>1983</ele>
        <time>2019-11-16T11:50:21Z</time>
      </trkpt>
      <trkpt lat="42.69798" lon="1.72175">
        <ele>1983</ele>
        <time>2019-11-16T11:50:28Z</time>
      </trkpt>
      <trkpt lat="42.69803" lon="1.7216">
        <ele>1980</ele>
        <time>2019-11-16T11:50:52Z</time>
      </trkpt>
      <trkpt lat="42.69807" lon="1.72128">
        <ele>1976</ele>
        <time>2019-11-16T11:51:21Z</time>
      </trkpt>
      <trkpt lat="42.6981" lon="1.72104">
        <ele>1974</ele>
        <time>2019-11-16T11:51:39Z</time>
      </trkpt>
      <trkpt lat="42.69811" lon="1.72097">
        <ele>1974</ele>
        <time>2019-11-16T11:51:44Z</time>
      </trkpt>
      <trkpt lat="42.69822" lon="1.7205">
        <ele>1969</ele>
        <time>2019-11-16T11:52:19Z</time>
      </trkpt>
      <trkpt lat="42.69825" lon="1.72035">
        <ele>1968</ele>
        <time>2019-11-16T11:52:31Z</time>
      </trkpt>
      <trkpt lat="42.69828" lon="1.72019">
        <ele>1966</ele>
        <time>2019-11-16T11:52:43Z</time>
      </trkpt>
      <trkpt lat="42.6983" lon="1.72011">
        <ele>1966</ele>
        <time>2019-11-16T11:52:49Z</time>
      </trkpt>
      <trkpt lat="42.69833" lon="1.72002">
        <ele>1965</ele>
        <time>2019-11-16T11:53:02Z</time>
      </trkpt>
      <trkpt lat="42.69836" lon="1.71995">
        <ele>1965</ele>
        <time>2019-11-16T11:53:07Z</time>
      </trkpt>
      <trkpt lat="42.6984" lon="1.71982">
        <ele>1963</ele>
        <time>2019-11-16T11:53:16Z</time>
      </trkpt>
      <trkpt lat="42.69842" lon="1.71974">
        <ele>1962</ele>
        <time>2019-11-16T11:53:24Z</time>
      </trkpt>
      <trkpt lat="42.69844" lon="1.71966">
        <ele>1961</ele>
        <time>2019-11-16T11:53:29Z</time>
      </trkpt>
      <trkpt lat="42.69847" lon="1.7196">
        <ele>1960</ele>
        <time>2019-11-16T11:53:34Z</time>
      </trkpt>
      <trkpt lat="42.69849" lon="1.71952">
        <ele>1960</ele>
        <time>2019-11-16T11:53:40Z</time>
      </trkpt>
      <trkpt lat="42.69851" lon="1.71945">
        <ele>1959</ele>
        <time>2019-11-16T11:53:45Z</time>
      </trkpt>
      <trkpt lat="42.69854" lon="1.71938">
        <ele>1958</ele>
        <time>2019-11-16T11:53:51Z</time>
      </trkpt>
      <trkpt lat="42.69859" lon="1.71923">
        <ele>1957</ele>
        <time>2019-11-16T11:54:01Z</time>
      </trkpt>
      <trkpt lat="42.69865" lon="1.71909">
        <ele>1956</ele>
        <time>2019-11-16T11:54:13Z</time>
      </trkpt>
      <trkpt lat="42.69868" lon="1.71905">
        <ele>1955</ele>
        <time>2019-11-16T11:54:39Z</time>
      </trkpt>
      <trkpt lat="42.69878" lon="1.71882">
        <ele>1955</ele>
        <time>2019-11-16T11:54:56Z</time>
      </trkpt>
      <trkpt lat="42.69885" lon="1.71868">
        <ele>1954</ele>
        <time>2019-11-16T11:55:08Z</time>
      </trkpt>
      <trkpt lat="42.69891" lon="1.71856">
        <ele>1953</ele>
        <time>2019-11-16T11:55:16Z</time>
      </trkpt>
      <trkpt lat="42.69901" lon="1.71836">
        <ele>1951</ele>
        <time>2019-11-16T11:55:37Z</time>
      </trkpt>
      <trkpt lat="42.69906" lon="1.7182">
        <ele>1949</ele>
        <time>2019-11-16T11:55:51Z</time>
      </trkpt>
      <trkpt lat="42.69919" lon="1.7179">
        <ele>1945</ele>
        <time>2019-11-16T11:56:14Z</time>
      </trkpt>
      <trkpt lat="42.69923" lon="1.71784">
        <ele>1944</ele>
        <time>2019-11-16T11:56:19Z</time>
      </trkpt>
      <trkpt lat="42.69927" lon="1.71778">
        <ele>1944</ele>
        <time>2019-11-16T11:56:25Z</time>
      </trkpt>
      <trkpt lat="42.69937" lon="1.71758">
        <ele>1940</ele>
        <time>2019-11-16T11:56:44Z</time>
      </trkpt>
      <trkpt lat="42.69944" lon="1.71746">
        <ele>1938</ele>
        <time>2019-11-16T11:56:55Z</time>
      </trkpt>
      <trkpt lat="42.69947" lon="1.7174">
        <ele>1938</ele>
        <time>2019-11-16T11:57:02Z</time>
      </trkpt>
      <trkpt lat="42.69962" lon="1.71729">
        <ele>1938</ele>
        <time>2019-11-16T11:57:29Z</time>
      </trkpt>
      <trkpt lat="42.69966" lon="1.71728">
        <ele>1938</ele>
        <time>2019-11-16T11:57:34Z</time>
      </trkpt>
      <trkpt lat="42.6997" lon="1.71728">
        <ele>1938</ele>
        <time>2019-11-16T11:57:39Z</time>
      </trkpt>
      <trkpt lat="42.69985" lon="1.71727">
        <ele>1940</ele>
        <time>2019-11-16T11:57:54Z</time>
      </trkpt>
      <trkpt lat="42.69998" lon="1.71728">
        <ele>1940</ele>
        <time>2019-11-16T11:58:06Z</time>
      </trkpt>
      <trkpt lat="42.70001" lon="1.71728">
        <ele>1941</ele>
        <time>2019-11-16T11:58:10Z</time>
      </trkpt>
      <trkpt lat="42.70005" lon="1.71728">
        <ele>1941</ele>
        <time>2019-11-16T11:58:14Z</time>
      </trkpt>
      <trkpt lat="42.7001" lon="1.71731">
        <ele>1941</ele>
        <time>2019-11-16T11:58:18Z</time>
      </trkpt>
      <trkpt lat="42.70014" lon="1.71731">
        <ele>1941</ele>
        <time>2019-11-16T11:58:22Z</time>
      </trkpt>
      <trkpt lat="42.70017" lon="1.71732">
        <ele>1941</ele>
        <time>2019-11-16T11:58:26Z</time>
      </trkpt>
      <trkpt lat="42.70022" lon="1.71733">
        <ele>1941</ele>
        <time>2019-11-16T11:58:31Z</time>
      </trkpt>
      <trkpt lat="42.70043" lon="1.71724">
        <ele>1941</ele>
        <time>2019-11-16T11:58:58Z</time>
      </trkpt>
      <trkpt lat="42.70046" lon="1.71722">
        <ele>1941</ele>
        <time>2019-11-16T11:59:18Z</time>
      </trkpt>
      <trkpt lat="42.70055" lon="1.71724">
        <ele>1942</ele>
        <time>2019-11-16T11:59:26Z</time>
      </trkpt>
      <trkpt lat="42.70067" lon="1.71727">
        <ele>1942</ele>
        <time>2019-11-16T11:59:40Z</time>
      </trkpt>
      <trkpt lat="42.7008" lon="1.71724">
        <ele>1942</ele>
        <time>2019-11-16T11:59:53Z</time>
      </trkpt>
      <trkpt lat="42.70088" lon="1.7172">
        <ele>1942</ele>
        <time>2019-11-16T12:00:01Z</time>
      </trkpt>
      <trkpt lat="42.70092" lon="1.71719">
        <ele>1942</ele>
        <time>2019-11-16T12:00:07Z</time>
      </trkpt>
      <trkpt lat="42.701" lon="1.7172">
        <ele>1943</ele>
        <time>2019-11-16T12:00:15Z</time>
      </trkpt>
      <trkpt lat="42.70104" lon="1.71719">
        <ele>1943</ele>
        <time>2019-11-16T12:00:28Z</time>
      </trkpt>
      <trkpt lat="42.70112" lon="1.71722">
        <ele>1943</ele>
        <time>2019-11-16T12:00:37Z</time>
      </trkpt>
      <trkpt lat="42.70116" lon="1.71723">
        <ele>1943</ele>
        <time>2019-11-16T12:00:41Z</time>
      </trkpt>
      <trkpt lat="42.70119" lon="1.71722">
        <ele>1944</ele>
        <time>2019-11-16T12:00:46Z</time>
      </trkpt>
      <trkpt lat="42.70123" lon="1.71721">
        <ele>1944</ele>
        <time>2019-11-16T12:00:53Z</time>
      </trkpt>
      <trkpt lat="42.70127" lon="1.71722">
        <ele>1944</ele>
        <time>2019-11-16T12:01:03Z</time>
      </trkpt>
      <trkpt lat="42.70132" lon="1.71721">
        <ele>1944</ele>
        <time>2019-11-16T12:01:10Z</time>
      </trkpt>
      <trkpt lat="42.70137" lon="1.7172">
        <ele>1944</ele>
        <time>2019-11-16T12:01:16Z</time>
      </trkpt>
      <trkpt lat="42.7014" lon="1.71721">
        <ele>1944</ele>
        <time>2019-11-16T12:01:24Z</time>
      </trkpt>
      <trkpt lat="42.70144" lon="1.71718">
        <ele>1944</ele>
        <time>2019-11-16T12:01:39Z</time>
      </trkpt>
      <trkpt lat="42.70156" lon="1.71714">
        <ele>1945</ele>
        <time>2019-11-16T12:02:10Z</time>
      </trkpt>
      <trkpt lat="42.70162" lon="1.71712">
        <ele>1945</ele>
        <time>2019-11-16T12:02:21Z</time>
      </trkpt>
      <trkpt lat="42.70166" lon="1.7171">
        <ele>1945</ele>
        <time>2019-11-16T12:02:25Z</time>
      </trkpt>
      <trkpt lat="42.7018" lon="1.71706">
        <ele>1946</ele>
        <time>2019-11-16T12:02:43Z</time>
      </trkpt>
      <trkpt lat="42.70184" lon="1.71704">
        <ele>1946</ele>
        <time>2019-11-16T12:02:50Z</time>
      </trkpt>
      <trkpt lat="42.70191" lon="1.717">
        <ele>1947</ele>
        <time>2019-11-16T12:03:30Z</time>
      </trkpt>
      <trkpt lat="42.70195" lon="1.717">
        <ele>1948</ele>
        <time>2019-11-16T12:03:43Z</time>
      </trkpt>
      <trkpt lat="42.70199" lon="1.71699">
        <ele>1948</ele>
        <time>2019-11-16T12:03:55Z</time>
      </trkpt>
      <trkpt lat="42.70202" lon="1.71695">
        <ele>1948</ele>
        <time>2019-11-16T12:04:17Z</time>
      </trkpt>
      <trkpt lat="42.70207" lon="1.71692">
        <ele>1949</ele>
        <time>2019-11-16T12:04:24Z</time>
      </trkpt>
      <trkpt lat="42.70215" lon="1.71684">
        <ele>1949</ele>
        <time>2019-11-16T12:04:55Z</time>
      </trkpt>
      <trkpt lat="42.70219" lon="1.71679">
        <ele>1949</ele>
        <time>2019-11-16T12:05:06Z</time>
      </trkpt>
      <trkpt lat="42.70227" lon="1.71668">
        <ele>1949</ele>
        <time>2019-11-16T12:05:43Z</time>
      </trkpt>
      <trkpt lat="42.7023" lon="1.71663">
        <ele>1949</ele>
        <time>2019-11-16T12:05:52Z</time>
      </trkpt>
      <trkpt lat="42.70239" lon="1.71656">
        <ele>1950</ele>
        <time>2019-11-16T12:06:44Z</time>
      </trkpt>
      <trkpt lat="42.70241" lon="1.71653">
        <ele>1950</ele>
        <time>2019-11-16T12:06:51Z</time>
      </trkpt>
      <trkpt lat="42.70247" lon="1.71647">
        <ele>1951</ele>
        <time>2019-11-16T12:07:10Z</time>
      </trkpt>
      <trkpt lat="42.70249" lon="1.71642">
        <ele>1952</ele>
        <time>2019-11-16T12:07:24Z</time>
      </trkpt>
      <trkpt lat="42.70255" lon="1.71632">
        <ele>1952</ele>
        <time>2019-11-16T12:07:51Z</time>
      </trkpt>
      <trkpt lat="42.70257" lon="1.71627">
        <ele>1952</ele>
        <time>2019-11-16T12:07:56Z</time>
      </trkpt>
      <trkpt lat="42.70259" lon="1.71623">
        <ele>1952</ele>
        <time>2019-11-16T12:08:00Z</time>
      </trkpt>
      <trkpt lat="42.70265" lon="1.71611">
        <ele>1952</ele>
        <time>2019-11-16T12:08:13Z</time>
      </trkpt>
      <trkpt lat="42.70266" lon="1.71606">
        <ele>1952</ele>
        <time>2019-11-16T12:08:17Z</time>
      </trkpt>
      <trkpt lat="42.70268" lon="1.71595">
        <ele>1953</ele>
        <time>2019-11-16T12:08:27Z</time>
      </trkpt>
      <trkpt lat="42.70274" lon="1.71571">
        <ele>1953</ele>
        <time>2019-11-16T12:08:58Z</time>
      </trkpt>
      <trkpt lat="42.70281" lon="1.71556">
        <ele>1953</ele>
        <time>2019-11-16T12:09:22Z</time>
      </trkpt>
      <trkpt lat="42.70283" lon="1.71551">
        <ele>1954</ele>
        <time>2019-11-16T12:09:35Z</time>
      </trkpt>
      <trkpt lat="42.70287" lon="1.71541">
        <ele>1954</ele>
        <time>2019-11-16T12:09:50Z</time>
      </trkpt>
      <trkpt lat="42.70292" lon="1.71519">
        <ele>1955</ele>
        <time>2019-11-16T12:10:08Z</time>
      </trkpt>
      <trkpt lat="42.70293" lon="1.71513">
        <ele>1955</ele>
        <time>2019-11-16T12:10:12Z</time>
      </trkpt>
      <trkpt lat="42.70293" lon="1.71497">
        <ele>1956</ele>
        <time>2019-11-16T12:10:25Z</time>
      </trkpt>
      <trkpt lat="42.70294" lon="1.71481">
        <ele>1957</ele>
        <time>2019-11-16T12:10:40Z</time>
      </trkpt>
      <trkpt lat="42.7029" lon="1.71466">
        <ele>1957</ele>
        <time>2019-11-16T12:10:55Z</time>
      </trkpt>
      <trkpt lat="42.70288" lon="1.71461">
        <ele>1958</ele>
        <time>2019-11-16T12:11:01Z</time>
      </trkpt>
      <trkpt lat="42.70286" lon="1.71454">
        <ele>1958</ele>
        <time>2019-11-16T12:11:06Z</time>
      </trkpt>
      <trkpt lat="42.70281" lon="1.71444">
        <ele>1958</ele>
        <time>2019-11-16T12:11:18Z</time>
      </trkpt>
      <trkpt lat="42.7028" lon="1.71439">
        <ele>1959</ele>
        <time>2019-11-16T12:11:22Z</time>
      </trkpt>
      <trkpt lat="42.70279" lon="1.71433">
        <ele>1959</ele>
        <time>2019-11-16T12:11:27Z</time>
      </trkpt>
      <trkpt lat="42.70277" lon="1.7142">
        <ele>1959</ele>
        <time>2019-11-16T12:11:36Z</time>
      </trkpt>
      <trkpt lat="42.70274" lon="1.71416">
        <ele>1959</ele>
        <time>2019-11-16T12:11:40Z</time>
      </trkpt>
      <trkpt lat="42.70272" lon="1.71411">
        <ele>1959</ele>
        <time>2019-11-16T12:11:47Z</time>
      </trkpt>
      <trkpt lat="42.70269" lon="1.7141">
        <ele>1959</ele>
        <time>2019-11-16T12:12:05Z</time>
      </trkpt>
      <trkpt lat="42.70269" lon="1.71405">
        <ele>1959</ele>
        <time>2019-11-16T12:12:27Z</time>
      </trkpt>
      <trkpt lat="42.70268" lon="1.71399">
        <ele>1959</ele>
        <time>2019-11-16T12:12:31Z</time>
      </trkpt>
      <trkpt lat="42.70267" lon="1.71395">
        <ele>1959</ele>
        <time>2019-11-16T12:12:35Z</time>
      </trkpt>
      <trkpt lat="42.70264" lon="1.71385">
        <ele>1959</ele>
        <time>2019-11-16T12:12:42Z</time>
      </trkpt>
      <trkpt lat="42.70265" lon="1.71369">
        <ele>1959</ele>
        <time>2019-11-16T12:12:55Z</time>
      </trkpt>
      <trkpt lat="42.70265" lon="1.71364">
        <ele>1959</ele>
        <time>2019-11-16T12:12:59Z</time>
      </trkpt>
      <trkpt lat="42.70274" lon="1.71341">
        <ele>1959</ele>
        <time>2019-11-16T12:13:16Z</time>
      </trkpt>
      <trkpt lat="42.70277" lon="1.71338">
        <ele>1959</ele>
        <time>2019-11-16T12:13:19Z</time>
      </trkpt>
      <trkpt lat="42.70281" lon="1.71332">
        <ele>1958</ele>
        <time>2019-11-16T12:13:24Z</time>
      </trkpt>
      <trkpt lat="42.70284" lon="1.71328">
        <ele>1958</ele>
        <time>2019-11-16T12:13:27Z</time>
      </trkpt>
      <trkpt lat="42.70287" lon="1.71325">
        <ele>1958</ele>
        <time>2019-11-16T12:13:33Z</time>
      </trkpt>
      <trkpt lat="42.7029" lon="1.71321">
        <ele>1957</ele>
        <time>2019-11-16T12:13:37Z</time>
      </trkpt>
      <trkpt lat="42.70294" lon="1.71318">
        <ele>1957</ele>
        <time>2019-11-16T12:13:41Z</time>
      </trkpt>
      <trkpt lat="42.70322" lon="1.71298">
        <ele>1956</ele>
        <time>2019-11-16T12:14:14Z</time>
      </trkpt>
      <trkpt lat="42.70334" lon="1.7129">
        <ele>1956</ele>
        <time>2019-11-16T12:14:27Z</time>
      </trkpt>
      <trkpt lat="42.70344" lon="1.71281">
        <ele>1955</ele>
        <time>2019-11-16T12:14:38Z</time>
      </trkpt>
      <trkpt lat="42.70363" lon="1.71272">
        <ele>1954</ele>
        <time>2019-11-16T12:14:58Z</time>
      </trkpt>
      <trkpt lat="42.7038" lon="1.71271">
        <ele>1953</ele>
        <time>2019-11-16T12:15:14Z</time>
      </trkpt>
      <trkpt lat="42.70387" lon="1.71269">
        <ele>1952</ele>
        <time>2019-11-16T12:15:35Z</time>
      </trkpt>
      <trkpt lat="42.70391" lon="1.71268">
        <ele>1951</ele>
        <time>2019-11-16T12:15:40Z</time>
      </trkpt>
      <trkpt lat="42.70399" lon="1.71265">
        <ele>1951</ele>
        <time>2019-11-16T12:15:49Z</time>
      </trkpt>
      <trkpt lat="42.70418" lon="1.7124">
        <ele>1950</ele>
        <time>2019-11-16T12:16:14Z</time>
      </trkpt>
      <trkpt lat="42.70422" lon="1.71229">
        <ele>1949</ele>
        <time>2019-11-16T12:16:25Z</time>
      </trkpt>
      <trkpt lat="42.70426" lon="1.71224">
        <ele>1949</ele>
        <time>2019-11-16T12:16:31Z</time>
      </trkpt>
      <trkpt lat="42.7043" lon="1.71222">
        <ele>1948</ele>
        <time>2019-11-16T12:16:46Z</time>
      </trkpt>
      <trkpt lat="42.70434" lon="1.7122">
        <ele>1948</ele>
        <time>2019-11-16T12:16:56Z</time>
      </trkpt>
      <trkpt lat="42.70438" lon="1.71218">
        <ele>1948</ele>
        <time>2019-11-16T12:17:01Z</time>
      </trkpt>
      <trkpt lat="42.70442" lon="1.71217">
        <ele>1947</ele>
        <time>2019-11-16T12:17:05Z</time>
      </trkpt>
      <trkpt lat="42.70458" lon="1.71212">
        <ele>1947</ele>
        <time>2019-11-16T12:17:19Z</time>
      </trkpt>
      <trkpt lat="42.70489" lon="1.71197">
        <ele>1946</ele>
        <time>2019-11-16T12:17:51Z</time>
      </trkpt>
      <trkpt lat="42.70496" lon="1.71189">
        <ele>1946</ele>
        <time>2019-11-16T12:18:02Z</time>
      </trkpt>
      <trkpt lat="42.70499" lon="1.71185">
        <ele>1946</ele>
        <time>2019-11-16T12:18:05Z</time>
      </trkpt>
      <trkpt lat="42.70514" lon="1.7116">
        <ele>1944</ele>
        <time>2019-11-16T12:18:25Z</time>
      </trkpt>
      <trkpt lat="42.7052" lon="1.71153">
        <ele>1944</ele>
        <time>2019-11-16T12:18:34Z</time>
      </trkpt>
      <trkpt lat="42.70532" lon="1.71147">
        <ele>1943</ele>
        <time>2019-11-16T12:18:48Z</time>
      </trkpt>
      <trkpt lat="42.70535" lon="1.71145">
        <ele>1943</ele>
        <time>2019-11-16T12:18:52Z</time>
      </trkpt>
      <trkpt lat="42.70546" lon="1.71132">
        <ele>1942</ele>
        <time>2019-11-16T12:19:07Z</time>
      </trkpt>
      <trkpt lat="42.70549" lon="1.71128">
        <ele>1942</ele>
        <time>2019-11-16T12:19:12Z</time>
      </trkpt>
      <trkpt lat="42.70558" lon="1.71115">
        <ele>1942</ele>
        <time>2019-11-16T12:19:24Z</time>
      </trkpt>
      <trkpt lat="42.70562" lon="1.7111">
        <ele>1941</ele>
        <time>2019-11-16T12:19:30Z</time>
      </trkpt>
      <trkpt lat="42.70567" lon="1.71098">
        <ele>1941</ele>
        <time>2019-11-16T12:19:40Z</time>
      </trkpt>
      <trkpt lat="42.70571" lon="1.71091">
        <ele>1940</ele>
        <time>2019-11-16T12:19:46Z</time>
      </trkpt>
      <trkpt lat="42.70574" lon="1.71085">
        <ele>1940</ele>
        <time>2019-11-16T12:19:52Z</time>
      </trkpt>
      <trkpt lat="42.70577" lon="1.71082">
        <ele>1940</ele>
        <time>2019-11-16T12:19:55Z</time>
      </trkpt>
      <trkpt lat="42.7058" lon="1.71076">
        <ele>1939</ele>
        <time>2019-11-16T12:20:00Z</time>
      </trkpt>
      <trkpt lat="42.70583" lon="1.71069">
        <ele>1939</ele>
        <time>2019-11-16T12:20:05Z</time>
      </trkpt>
      <trkpt lat="42.70589" lon="1.71056">
        <ele>1938</ele>
        <time>2019-11-16T12:20:17Z</time>
      </trkpt>
      <trkpt lat="42.70592" lon="1.71052">
        <ele>1937</ele>
        <time>2019-11-16T12:20:51Z</time>
      </trkpt>
      <trkpt lat="42.70603" lon="1.71036">
        <ele>1936</ele>
        <time>2019-11-16T12:21:08Z</time>
      </trkpt>
      <trkpt lat="42.70608" lon="1.71032">
        <ele>1936</ele>
        <time>2019-11-16T12:21:14Z</time>
      </trkpt>
      <trkpt lat="42.70618" lon="1.71024">
        <ele>1935</ele>
        <time>2019-11-16T12:21:24Z</time>
      </trkpt>
      <trkpt lat="42.70627" lon="1.71017">
        <ele>1935</ele>
        <time>2019-11-16T12:21:44Z</time>
      </trkpt>
      <trkpt lat="42.7063" lon="1.7101">
        <ele>1934</ele>
        <time>2019-11-16T12:21:52Z</time>
      </trkpt>
      <trkpt lat="42.70634" lon="1.71008">
        <ele>1932</ele>
        <time>2019-11-16T12:23:06Z</time>
      </trkpt>
      <trkpt lat="42.70638" lon="1.71006">
        <ele>1932</ele>
        <time>2019-11-16T12:23:09Z</time>
      </trkpt>
      <trkpt lat="42.70641" lon="1.71004">
        <ele>1932</ele>
        <time>2019-11-16T12:23:15Z</time>
      </trkpt>
      <trkpt lat="42.70649" lon="1.71001">
        <ele>1933</ele>
        <time>2019-11-16T12:23:29Z</time>
      </trkpt>
      <trkpt lat="42.70653" lon="1.70998">
        <ele>1933</ele>
        <time>2019-11-16T12:23:33Z</time>
      </trkpt>
      <trkpt lat="42.70674" lon="1.70989">
        <ele>1935</ele>
        <time>2019-11-16T12:23:57Z</time>
      </trkpt>
      <trkpt lat="42.70679" lon="1.7099">
        <ele>1935</ele>
        <time>2019-11-16T12:24:01Z</time>
      </trkpt>
      <trkpt lat="42.70699" lon="1.70988">
        <ele>1934</ele>
        <time>2019-11-16T12:24:25Z</time>
      </trkpt>
      <trkpt lat="42.70703" lon="1.70987">
        <ele>1934</ele>
        <time>2019-11-16T12:24:30Z</time>
      </trkpt>
      <trkpt lat="42.70706" lon="1.70986">
        <ele>1934</ele>
        <time>2019-11-16T12:24:34Z</time>
      </trkpt>
      <trkpt lat="42.70715" lon="1.70983">
        <ele>1934</ele>
        <time>2019-11-16T12:24:54Z</time>
      </trkpt>
      <trkpt lat="42.70719" lon="1.70983">
        <ele>1934</ele>
        <time>2019-11-16T12:25:07Z</time>
      </trkpt>
      <trkpt lat="42.70732" lon="1.70983">
        <ele>1933</ele>
        <time>2019-11-16T12:25:20Z</time>
      </trkpt>
      <trkpt lat="42.70745" lon="1.70983">
        <ele>1932</ele>
        <time>2019-11-16T12:25:37Z</time>
      </trkpt>
      <trkpt lat="42.70762" lon="1.70985">
        <ele>1933</ele>
        <time>2019-11-16T12:25:57Z</time>
      </trkpt>
      <trkpt lat="42.70766" lon="1.70986">
        <ele>1933</ele>
        <time>2019-11-16T12:26:01Z</time>
      </trkpt>
      <trkpt lat="42.70777" lon="1.70986">
        <ele>1934</ele>
        <time>2019-11-16T12:26:17Z</time>
      </trkpt>
      <trkpt lat="42.70781" lon="1.70985">
        <ele>1934</ele>
        <time>2019-11-16T12:26:34Z</time>
      </trkpt>
      <trkpt lat="42.70785" lon="1.70985">
        <ele>1934</ele>
        <time>2019-11-16T12:26:41Z</time>
      </trkpt>
      <trkpt lat="42.70796" lon="1.70986">
        <ele>1936</ele>
        <time>2019-11-16T12:26:58Z</time>
      </trkpt>
      <trkpt lat="42.70812" lon="1.70985">
        <ele>1937</ele>
        <time>2019-11-16T12:27:24Z</time>
      </trkpt>
      <trkpt lat="42.70816" lon="1.70985">
        <ele>1937</ele>
        <time>2019-11-16T12:27:30Z</time>
      </trkpt>
      <trkpt lat="42.70822" lon="1.70979">
        <ele>1938</ele>
        <time>2019-11-16T12:27:41Z</time>
      </trkpt>
      <trkpt lat="42.70826" lon="1.70977">
        <ele>1938</ele>
        <time>2019-11-16T12:27:47Z</time>
      </trkpt>
      <trkpt lat="42.70835" lon="1.70973">
        <ele>1939</ele>
        <time>2019-11-16T12:27:58Z</time>
      </trkpt>
      <trkpt lat="42.70839" lon="1.70972">
        <ele>1939</ele>
        <time>2019-11-16T12:28:03Z</time>
      </trkpt>
      <trkpt lat="42.70842" lon="1.7097">
        <ele>1940</ele>
        <time>2019-11-16T12:28:07Z</time>
      </trkpt>
      <trkpt lat="42.70851" lon="1.70967">
        <ele>1940</ele>
        <time>2019-11-16T12:28:15Z</time>
      </trkpt>
      <trkpt lat="42.70854" lon="1.70966">
        <ele>1940</ele>
        <time>2019-11-16T12:28:22Z</time>
      </trkpt>
      <trkpt lat="42.70861" lon="1.70962">
        <ele>1941</ele>
        <time>2019-11-16T12:28:30Z</time>
      </trkpt>
      <trkpt lat="42.70865" lon="1.7096">
        <ele>1941</ele>
        <time>2019-11-16T12:28:36Z</time>
      </trkpt>
      <trkpt lat="42.70873" lon="1.70956">
        <ele>1942</ele>
        <time>2019-11-16T12:28:45Z</time>
      </trkpt>
      <trkpt lat="42.70893" lon="1.70946">
        <ele>1942</ele>
        <time>2019-11-16T12:29:07Z</time>
      </trkpt>
      <trkpt lat="42.70896" lon="1.70944">
        <ele>1942</ele>
        <time>2019-11-16T12:29:10Z</time>
      </trkpt>
      <trkpt lat="42.70908" lon="1.70938">
        <ele>1942</ele>
        <time>2019-11-16T12:29:26Z</time>
      </trkpt>
      <trkpt lat="42.70916" lon="1.70932">
        <ele>1943</ele>
        <time>2019-11-16T12:29:36Z</time>
      </trkpt>
      <trkpt lat="42.70924" lon="1.70927">
        <ele>1943</ele>
        <time>2019-11-16T12:29:45Z</time>
      </trkpt>
      <trkpt lat="42.70928" lon="1.70926">
        <ele>1944</ele>
        <time>2019-11-16T12:29:49Z</time>
      </trkpt>
      <trkpt lat="42.70933" lon="1.70923">
        <ele>1944</ele>
        <time>2019-11-16T12:29:54Z</time>
      </trkpt>
      <trkpt lat="42.70936" lon="1.70921">
        <ele>1944</ele>
        <time>2019-11-16T12:30:00Z</time>
      </trkpt>
      <trkpt lat="42.70948" lon="1.70913">
        <ele>1944</ele>
        <time>2019-11-16T12:30:16Z</time>
      </trkpt>
      <trkpt lat="42.70958" lon="1.70903">
        <ele>1944</ele>
        <time>2019-11-16T12:30:32Z</time>
      </trkpt>
      <trkpt lat="42.70962" lon="1.709">
        <ele>1944</ele>
        <time>2019-11-16T12:30:37Z</time>
      </trkpt>
      <trkpt lat="42.70967" lon="1.70895">
        <ele>1944</ele>
        <time>2019-11-16T12:30:47Z</time>
      </trkpt>
      <trkpt lat="42.70978" lon="1.70884">
        <ele>1945</ele>
        <time>2019-11-16T12:31:07Z</time>
      </trkpt>
      <trkpt lat="42.70984" lon="1.70873">
        <ele>1946</ele>
        <time>2019-11-16T12:31:20Z</time>
      </trkpt>
      <trkpt lat="42.70987" lon="1.70869">
        <ele>1947</ele>
        <time>2019-11-16T12:31:30Z</time>
      </trkpt>
      <trkpt lat="42.70989" lon="1.70865">
        <ele>1947</ele>
        <time>2019-11-16T12:32:39Z</time>
      </trkpt>
      <trkpt lat="42.7099" lon="1.7086">
        <ele>1948</ele>
        <time>2019-11-16T12:32:43Z</time>
      </trkpt>
      <trkpt lat="42.71004" lon="1.70831">
        <ele>1950</ele>
        <time>2019-11-16T12:33:10Z</time>
      </trkpt>
      <trkpt lat="42.71009" lon="1.70823">
        <ele>1950</ele>
        <time>2019-11-16T12:33:18Z</time>
      </trkpt>
      <trkpt lat="42.71015" lon="1.70809">
        <ele>1950</ele>
        <time>2019-11-16T12:33:29Z</time>
      </trkpt>
      <trkpt lat="42.71019" lon="1.70803">
        <ele>1950</ele>
        <time>2019-11-16T12:33:38Z</time>
      </trkpt>
      <trkpt lat="42.71021" lon="1.70798">
        <ele>1950</ele>
        <time>2019-11-16T12:34:53Z</time>
      </trkpt>
      <trkpt lat="42.71027" lon="1.70784">
        <ele>1950</ele>
        <time>2019-11-16T12:35:05Z</time>
      </trkpt>
      <trkpt lat="42.71036" lon="1.70763">
        <ele>1950</ele>
        <time>2019-11-16T12:35:25Z</time>
      </trkpt>
      <trkpt lat="42.71039" lon="1.7076">
        <ele>1950</ele>
        <time>2019-11-16T12:35:55Z</time>
      </trkpt>
      <trkpt lat="42.71044" lon="1.7074">
        <ele>1951</ele>
        <time>2019-11-16T12:36:21Z</time>
      </trkpt>
      <trkpt lat="42.71046" lon="1.70735">
        <ele>1951</ele>
        <time>2019-11-16T12:36:26Z</time>
      </trkpt>
      <trkpt lat="42.7105" lon="1.70725">
        <ele>1952</ele>
        <time>2019-11-16T12:36:36Z</time>
      </trkpt>
      <trkpt lat="42.71055" lon="1.7071">
        <ele>1953</ele>
        <time>2019-11-16T12:36:53Z</time>
      </trkpt>
      <trkpt lat="42.71062" lon="1.70693">
        <ele>1955</ele>
        <time>2019-11-16T12:37:18Z</time>
      </trkpt>
      <trkpt lat="42.7108" lon="1.70672">
        <ele>1958</ele>
        <time>2019-11-16T12:37:46Z</time>
      </trkpt>
      <trkpt lat="42.71101" lon="1.70657">
        <ele>1960</ele>
        <time>2019-11-16T12:38:11Z</time>
      </trkpt>
      <trkpt lat="42.71113" lon="1.70652">
        <ele>1961</ele>
        <time>2019-11-16T12:38:23Z</time>
      </trkpt>
      <trkpt lat="42.71116" lon="1.7065">
        <ele>1961</ele>
        <time>2019-11-16T12:38:29Z</time>
      </trkpt>
      <trkpt lat="42.7112" lon="1.70649">
        <ele>1961</ele>
        <time>2019-11-16T12:38:32Z</time>
      </trkpt>
      <trkpt lat="42.71124" lon="1.70646">
        <ele>1961</ele>
        <time>2019-11-16T12:38:36Z</time>
      </trkpt>
      <trkpt lat="42.71135" lon="1.70643">
        <ele>1961</ele>
        <time>2019-11-16T12:38:48Z</time>
      </trkpt>
      <trkpt lat="42.71143" lon="1.70638">
        <ele>1961</ele>
        <time>2019-11-16T12:39:01Z</time>
      </trkpt>
      <trkpt lat="42.71161" lon="1.70632">
        <ele>1961</ele>
        <time>2019-11-16T12:39:18Z</time>
      </trkpt>
      <trkpt lat="42.71165" lon="1.70631">
        <ele>1961</ele>
        <time>2019-11-16T12:39:23Z</time>
      </trkpt>
      <trkpt lat="42.71169" lon="1.7063">
        <ele>1961</ele>
        <time>2019-11-16T12:39:27Z</time>
      </trkpt>
      <trkpt lat="42.71173" lon="1.70629">
        <ele>1961</ele>
        <time>2019-11-16T12:39:30Z</time>
      </trkpt>
      <trkpt lat="42.71204" lon="1.70617">
        <ele>1962</ele>
        <time>2019-11-16T12:40:00Z</time>
      </trkpt>
      <trkpt lat="42.71239" lon="1.70607">
        <ele>1962</ele>
        <time>2019-11-16T12:40:33Z</time>
      </trkpt>
      <trkpt lat="42.71246" lon="1.70603">
        <ele>1962</ele>
        <time>2019-11-16T12:40:39Z</time>
      </trkpt>
      <trkpt lat="42.71258" lon="1.706">
        <ele>1961</ele>
        <time>2019-11-16T12:40:51Z</time>
      </trkpt>
      <trkpt lat="42.71283" lon="1.70595">
        <ele>1959</ele>
        <time>2019-11-16T12:41:14Z</time>
      </trkpt>
      <trkpt lat="42.71312" lon="1.70584">
        <ele>1957</ele>
        <time>2019-11-16T12:41:40Z</time>
      </trkpt>
      <trkpt lat="42.71324" lon="1.70581">
        <ele>1956</ele>
        <time>2019-11-16T12:41:52Z</time>
      </trkpt>
      <trkpt lat="42.71357" lon="1.7057">
        <ele>1954</ele>
        <time>2019-11-16T12:42:23Z</time>
      </trkpt>
      <trkpt lat="42.71362" lon="1.70569">
        <ele>1954</ele>
        <time>2019-11-16T12:42:26Z</time>
      </trkpt>
      <trkpt lat="42.71383" lon="1.70561">
        <ele>1953</ele>
        <time>2019-11-16T12:42:47Z</time>
      </trkpt>
      <trkpt lat="42.71417" lon="1.70555">
        <ele>1951</ele>
        <time>2019-11-16T12:43:17Z</time>
      </trkpt>
      <trkpt lat="42.71421" lon="1.70554">
        <ele>1951</ele>
        <time>2019-11-16T12:43:22Z</time>
      </trkpt>
      <trkpt lat="42.71435" lon="1.70552">
        <ele>1950</ele>
        <time>2019-11-16T12:43:35Z</time>
      </trkpt>
      <trkpt lat="42.71438" lon="1.70549">
        <ele>1949</ele>
        <time>2019-11-16T12:43:47Z</time>
      </trkpt>
      <trkpt lat="42.71442" lon="1.70548">
        <ele>1949</ele>
        <time>2019-11-16T12:44:20Z</time>
      </trkpt>
      <trkpt lat="42.71467" lon="1.70532">
        <ele>1947</ele>
        <time>2019-11-16T12:44:50Z</time>
      </trkpt>
      <trkpt lat="42.71479" lon="1.70525">
        <ele>1947</ele>
        <time>2019-11-16T12:45:06Z</time>
      </trkpt>
      <trkpt lat="42.71483" lon="1.70523">
        <ele>1947</ele>
        <time>2019-11-16T12:45:12Z</time>
      </trkpt>
      <trkpt lat="42.71487" lon="1.7052">
        <ele>1947</ele>
        <time>2019-11-16T12:45:18Z</time>
      </trkpt>
      <trkpt lat="42.71491" lon="1.70517">
        <ele>1946</ele>
        <time>2019-11-16T12:45:24Z</time>
      </trkpt>
      <trkpt lat="42.7151" lon="1.70508">
        <ele>1948</ele>
        <time>2019-11-16T12:45:56Z</time>
      </trkpt>
      <trkpt lat="42.71514" lon="1.70506">
        <ele>1949</ele>
        <time>2019-11-16T12:46:48Z</time>
      </trkpt>
      <trkpt lat="42.71513" lon="1.70507">
        <ele>1949</ele>
        <time>2019-11-16T12:49:21Z</time>
      </trkpt>
      <trkpt lat="42.71516" lon="1.7051">
        <ele>1949</ele>
        <time>2019-11-16T12:49:37Z</time>
      </trkpt>
      <trkpt lat="42.7152" lon="1.70513">
        <ele>1948</ele>
        <time>2019-11-16T12:49:44Z</time>
      </trkpt>
      <trkpt lat="42.71523" lon="1.70517">
        <ele>1948</ele>
        <time>2019-11-16T12:49:48Z</time>
      </trkpt>
      <trkpt lat="42.71526" lon="1.7052">
        <ele>1948</ele>
        <time>2019-11-16T12:49:52Z</time>
      </trkpt>
      <trkpt lat="42.7153" lon="1.70523">
        <ele>1948</ele>
        <time>2019-11-16T12:49:56Z</time>
      </trkpt>
      <trkpt lat="42.71534" lon="1.70524">
        <ele>1949</ele>
        <time>2019-11-16T12:50:00Z</time>
      </trkpt>
      <trkpt lat="42.71538" lon="1.70523">
        <ele>1949</ele>
        <time>2019-11-16T12:50:05Z</time>
      </trkpt>
      <trkpt lat="42.71542" lon="1.70521">
        <ele>1949</ele>
        <time>2019-11-16T12:50:15Z</time>
      </trkpt>
      <trkpt lat="42.7155" lon="1.70518">
        <ele>1949</ele>
        <time>2019-11-16T12:50:25Z</time>
      </trkpt>
      <trkpt lat="42.71554" lon="1.70516">
        <ele>1948</ele>
        <time>2019-11-16T12:50:29Z</time>
      </trkpt>
      <trkpt lat="42.71561" lon="1.70513">
        <ele>1948</ele>
        <time>2019-11-16T12:50:37Z</time>
      </trkpt>
      <trkpt lat="42.71568" lon="1.70508">
        <ele>1948</ele>
        <time>2019-11-16T12:50:44Z</time>
      </trkpt>
      <trkpt lat="42.71571" lon="1.70506">
        <ele>1948</ele>
        <time>2019-11-16T12:50:48Z</time>
      </trkpt>
      <trkpt lat="42.71574" lon="1.70502">
        <ele>1948</ele>
        <time>2019-11-16T12:51:03Z</time>
      </trkpt>
      <trkpt lat="42.71577" lon="1.70499">
        <ele>1947</ele>
        <time>2019-11-16T12:53:00Z</time>
      </trkpt>
      <trkpt lat="42.71581" lon="1.70496">
        <ele>1946</ele>
        <time>2019-11-16T12:53:04Z</time>
      </trkpt>
      <trkpt lat="42.71591" lon="1.70481">
        <ele>1945</ele>
        <time>2019-11-16T12:53:19Z</time>
      </trkpt>
      <trkpt lat="42.71594" lon="1.70476">
        <ele>1945</ele>
        <time>2019-11-16T12:53:23Z</time>
      </trkpt>
      <trkpt lat="42.71601" lon="1.70469">
        <ele>1945</ele>
        <time>2019-11-16T12:53:30Z</time>
      </trkpt>
      <trkpt lat="42.71624" lon="1.70448">
        <ele>1943</ele>
        <time>2019-11-16T12:53:56Z</time>
      </trkpt>
      <trkpt lat="42.71635" lon="1.70438">
        <ele>1942</ele>
        <time>2019-11-16T12:54:09Z</time>
      </trkpt>
      <trkpt lat="42.7166" lon="1.70413">
        <ele>1939</ele>
        <time>2019-11-16T12:54:37Z</time>
      </trkpt>
      <trkpt lat="42.71668" lon="1.70407">
        <ele>1938</ele>
        <time>2019-11-16T12:54:46Z</time>
      </trkpt>
      <trkpt lat="42.71676" lon="1.70401">
        <ele>1937</ele>
        <time>2019-11-16T12:54:54Z</time>
      </trkpt>
      <trkpt lat="42.71683" lon="1.70398">
        <ele>1937</ele>
        <time>2019-11-16T12:55:02Z</time>
      </trkpt>
      <trkpt lat="42.71691" lon="1.70396">
        <ele>1936</ele>
        <time>2019-11-16T12:55:09Z</time>
      </trkpt>
      <trkpt lat="42.71695" lon="1.70392">
        <ele>1935</ele>
        <time>2019-11-16T12:55:13Z</time>
      </trkpt>
      <trkpt lat="42.71701" lon="1.70385">
        <ele>1934</ele>
        <time>2019-11-16T12:55:21Z</time>
      </trkpt>
      <trkpt lat="42.71705" lon="1.70382">
        <ele>1934</ele>
        <time>2019-11-16T12:55:24Z</time>
      </trkpt>
      <trkpt lat="42.71711" lon="1.70376">
        <ele>1933</ele>
        <time>2019-11-16T12:55:35Z</time>
      </trkpt>
      <trkpt lat="42.71715" lon="1.70374">
        <ele>1932</ele>
        <time>2019-11-16T12:55:47Z</time>
      </trkpt>
      <trkpt lat="42.71723" lon="1.70366">
        <ele>1930</ele>
        <time>2019-11-16T12:55:55Z</time>
      </trkpt>
      <trkpt lat="42.71727" lon="1.70363">
        <ele>1930</ele>
        <time>2019-11-16T12:55:59Z</time>
      </trkpt>
      <trkpt lat="42.7173" lon="1.70359">
        <ele>1929</ele>
        <time>2019-11-16T12:56:04Z</time>
      </trkpt>
      <trkpt lat="42.71739" lon="1.7034">
        <ele>1928</ele>
        <time>2019-11-16T12:56:20Z</time>
      </trkpt>
      <trkpt lat="42.71741" lon="1.70336">
        <ele>1928</ele>
        <time>2019-11-16T12:56:23Z</time>
      </trkpt>
      <trkpt lat="42.71742" lon="1.7033">
        <ele>1927</ele>
        <time>2019-11-16T12:56:27Z</time>
      </trkpt>
      <trkpt lat="42.71742" lon="1.70301">
        <ele>1926</ele>
        <time>2019-11-16T12:56:47Z</time>
      </trkpt>
      <trkpt lat="42.71742" lon="1.70296">
        <ele>1925</ele>
        <time>2019-11-16T12:56:51Z</time>
      </trkpt>
      <trkpt lat="42.71742" lon="1.7029">
        <ele>1925</ele>
        <time>2019-11-16T12:56:55Z</time>
      </trkpt>
      <trkpt lat="42.71743" lon="1.70284">
        <ele>1924</ele>
        <time>2019-11-16T12:56:59Z</time>
      </trkpt>
      <trkpt lat="42.7174" lon="1.70263">
        <ele>1922</ele>
        <time>2019-11-16T12:57:17Z</time>
      </trkpt>
      <trkpt lat="42.71737" lon="1.70259">
        <ele>1922</ele>
        <time>2019-11-16T12:57:21Z</time>
      </trkpt>
      <trkpt lat="42.71737" lon="1.70256">
        <ele>1918</ele>
        <time>2019-11-16T13:01:48Z</time>
      </trkpt>
      <trkpt lat="42.71736" lon="1.70226">
        <ele>1917</ele>
        <time>2019-11-16T13:02:11Z</time>
      </trkpt>
      <trkpt lat="42.71735" lon="1.70221">
        <ele>1917</ele>
        <time>2019-11-16T13:02:15Z</time>
      </trkpt>
      <trkpt lat="42.71734" lon="1.70205">
        <ele>1916</ele>
        <time>2019-11-16T13:02:25Z</time>
      </trkpt>
      <trkpt lat="42.71735" lon="1.70189">
        <ele>1916</ele>
        <time>2019-11-16T13:02:36Z</time>
      </trkpt>
      <trkpt lat="42.71736" lon="1.70177">
        <ele>1915</ele>
        <time>2019-11-16T13:02:44Z</time>
      </trkpt>
      <trkpt lat="42.7174" lon="1.7016">
        <ele>1914</ele>
        <time>2019-11-16T13:02:56Z</time>
      </trkpt>
      <trkpt lat="42.71743" lon="1.70153">
        <ele>1914</ele>
        <time>2019-11-16T13:03:01Z</time>
      </trkpt>
      <trkpt lat="42.71746" lon="1.7015">
        <ele>1913</ele>
        <time>2019-11-16T13:03:04Z</time>
      </trkpt>
      <trkpt lat="42.71751" lon="1.70141">
        <ele>1913</ele>
        <time>2019-11-16T13:03:13Z</time>
      </trkpt>
      <trkpt lat="42.71774" lon="1.70114">
        <ele>1911</ele>
        <time>2019-11-16T13:03:39Z</time>
      </trkpt>
      <trkpt lat="42.71778" lon="1.70111">
        <ele>1911</ele>
        <time>2019-11-16T13:03:44Z</time>
      </trkpt>
      <trkpt lat="42.71776" lon="1.70109">
        <ele>1911</ele>
        <time>2019-11-16T13:04:20Z</time>
      </trkpt>
      <trkpt lat="42.71777" lon="1.70111">
        <ele>1910</ele>
        <time>2019-11-16T13:05:26Z</time>
      </trkpt>
      <trkpt lat="42.71793" lon="1.70093">
        <ele>1908</ele>
        <time>2019-11-16T13:05:45Z</time>
      </trkpt>
      <trkpt lat="42.71798" lon="1.70083">
        <ele>1908</ele>
        <time>2019-11-16T13:05:52Z</time>
      </trkpt>
      <trkpt lat="42.71799" lon="1.70065">
        <ele>1907</ele>
        <time>2019-11-16T13:06:05Z</time>
      </trkpt>
      <trkpt lat="42.71799" lon="1.70059">
        <ele>1907</ele>
        <time>2019-11-16T13:06:09Z</time>
      </trkpt>
      <trkpt lat="42.71798" lon="1.70046">
        <ele>1906</ele>
        <time>2019-11-16T13:06:18Z</time>
      </trkpt>
      <trkpt lat="42.718" lon="1.70042">
        <ele>1905</ele>
        <time>2019-11-16T13:06:26Z</time>
      </trkpt>
      <trkpt lat="42.71797" lon="1.70038">
        <ele>1904</ele>
        <time>2019-11-16T13:06:51Z</time>
      </trkpt>
      <trkpt lat="42.71799" lon="1.70034">
        <ele>1903</ele>
        <time>2019-11-16T13:07:13Z</time>
      </trkpt>
      <trkpt lat="42.71798" lon="1.70029">
        <ele>1903</ele>
        <time>2019-11-16T13:07:21Z</time>
      </trkpt>
      <trkpt lat="42.71798" lon="1.70023">
        <ele>1902</ele>
        <time>2019-11-16T13:07:25Z</time>
      </trkpt>
      <trkpt lat="42.71798" lon="1.70019">
        <ele>1902</ele>
        <time>2019-11-16T13:07:28Z</time>
      </trkpt>
      <trkpt lat="42.71798" lon="1.70002">
        <ele>1902</ele>
        <time>2019-11-16T13:07:38Z</time>
      </trkpt>
      <trkpt lat="42.71797" lon="1.69997">
        <ele>1902</ele>
        <time>2019-11-16T13:07:42Z</time>
      </trkpt>
      <trkpt lat="42.71795" lon="1.69946">
        <ele>1900</ele>
        <time>2019-11-16T13:08:14Z</time>
      </trkpt>
      <trkpt lat="42.71795" lon="1.69939">
        <ele>1900</ele>
        <time>2019-11-16T13:08:19Z</time>
      </trkpt>
      <trkpt lat="42.71793" lon="1.69917">
        <ele>1898</ele>
        <time>2019-11-16T13:08:35Z</time>
      </trkpt>
      <trkpt lat="42.71793" lon="1.69887">
        <ele>1896</ele>
        <time>2019-11-16T13:08:54Z</time>
      </trkpt>
      <trkpt lat="42.71792" lon="1.6988">
        <ele>1895</ele>
        <time>2019-11-16T13:08:59Z</time>
      </trkpt>
      <trkpt lat="42.71792" lon="1.69875">
        <ele>1895</ele>
        <time>2019-11-16T13:09:02Z</time>
      </trkpt>
      <trkpt lat="42.71792" lon="1.69868">
        <ele>1895</ele>
        <time>2019-11-16T13:09:07Z</time>
      </trkpt>
      <trkpt lat="42.71793" lon="1.69857">
        <ele>1894</ele>
        <time>2019-11-16T13:09:13Z</time>
      </trkpt>
      <trkpt lat="42.71794" lon="1.69852">
        <ele>1894</ele>
        <time>2019-11-16T13:09:17Z</time>
      </trkpt>
      <trkpt lat="42.71794" lon="1.69847">
        <ele>1894</ele>
        <time>2019-11-16T13:09:20Z</time>
      </trkpt>
      <trkpt lat="42.71794" lon="1.69842">
        <ele>1894</ele>
        <time>2019-11-16T13:09:23Z</time>
      </trkpt>
      <trkpt lat="42.71795" lon="1.6982">
        <ele>1892</ele>
        <time>2019-11-16T13:09:37Z</time>
      </trkpt>
      <trkpt lat="42.71799" lon="1.69796">
        <ele>1889</ele>
        <time>2019-11-16T13:09:53Z</time>
      </trkpt>
      <trkpt lat="42.71814" lon="1.69756">
        <ele>1887</ele>
        <time>2019-11-16T13:10:24Z</time>
      </trkpt>
      <trkpt lat="42.71819" lon="1.69743">
        <ele>1886</ele>
        <time>2019-11-16T13:10:34Z</time>
      </trkpt>
      <trkpt lat="42.71824" lon="1.69743">
        <ele>1886</ele>
        <time>2019-11-16T13:10:40Z</time>
      </trkpt>
      <trkpt lat="42.71824" lon="1.6974">
        <ele>1886</ele>
        <time>2019-11-16T13:12:13Z</time>
      </trkpt>
      <trkpt lat="42.71821" lon="1.69736">
        <ele>1886</ele>
        <time>2019-11-16T13:12:20Z</time>
      </trkpt>
      <trkpt lat="42.71824" lon="1.69727">
        <ele>1885</ele>
        <time>2019-11-16T13:12:27Z</time>
      </trkpt>
      <trkpt lat="42.71825" lon="1.69722">
        <ele>1884</ele>
        <time>2019-11-16T13:12:31Z</time>
      </trkpt>
      <trkpt lat="42.71827" lon="1.69716">
        <ele>1884</ele>
        <time>2019-11-16T13:12:35Z</time>
      </trkpt>
      <trkpt lat="42.71828" lon="1.6971">
        <ele>1884</ele>
        <time>2019-11-16T13:12:40Z</time>
      </trkpt>
      <trkpt lat="42.71826" lon="1.69701">
        <ele>1883</ele>
        <time>2019-11-16T13:12:48Z</time>
      </trkpt>
      <trkpt lat="42.71824" lon="1.69695">
        <ele>1882</ele>
        <time>2019-11-16T13:12:54Z</time>
      </trkpt>
      <trkpt lat="42.71823" lon="1.69689">
        <ele>1882</ele>
        <time>2019-11-16T13:12:58Z</time>
      </trkpt>
      <trkpt lat="42.71821" lon="1.69685">
        <ele>1882</ele>
        <time>2019-11-16T13:13:03Z</time>
      </trkpt>
      <trkpt lat="42.71819" lon="1.6968">
        <ele>1882</ele>
        <time>2019-11-16T13:13:06Z</time>
      </trkpt>
      <trkpt lat="42.71818" lon="1.69675">
        <ele>1882</ele>
        <time>2019-11-16T13:13:09Z</time>
      </trkpt>
      <trkpt lat="42.71817" lon="1.69661">
        <ele>1882</ele>
        <time>2019-11-16T13:13:18Z</time>
      </trkpt>
      <trkpt lat="42.71811" lon="1.69627">
        <ele>1881</ele>
        <time>2019-11-16T13:13:44Z</time>
      </trkpt>
      <trkpt lat="42.7181" lon="1.69622">
        <ele>1881</ele>
        <time>2019-11-16T13:13:47Z</time>
      </trkpt>
      <trkpt lat="42.71808" lon="1.69618">
        <ele>1881</ele>
        <time>2019-11-16T13:13:53Z</time>
      </trkpt>
      <trkpt lat="42.71807" lon="1.69612">
        <ele>1881</ele>
        <time>2019-11-16T13:14:00Z</time>
      </trkpt>
      <trkpt lat="42.71808" lon="1.69607">
        <ele>1881</ele>
        <time>2019-11-16T13:14:04Z</time>
      </trkpt>
      <trkpt lat="42.71809" lon="1.69602">
        <ele>1881</ele>
        <time>2019-11-16T13:14:07Z</time>
      </trkpt>
      <trkpt lat="42.71809" lon="1.69596">
        <ele>1880</ele>
        <time>2019-11-16T13:14:11Z</time>
      </trkpt>
      <trkpt lat="42.71809" lon="1.69591">
        <ele>1879</ele>
        <time>2019-11-16T13:14:15Z</time>
      </trkpt>
      <trkpt lat="42.71808" lon="1.69579">
        <ele>1879</ele>
        <time>2019-11-16T13:14:23Z</time>
      </trkpt>
      <trkpt lat="42.71809" lon="1.69567">
        <ele>1878</ele>
        <time>2019-11-16T13:14:31Z</time>
      </trkpt>
      <trkpt lat="42.71808" lon="1.69523">
        <ele>1875</ele>
        <time>2019-11-16T13:15:04Z</time>
      </trkpt>
      <trkpt lat="42.71809" lon="1.69518">
        <ele>1875</ele>
        <time>2019-11-16T13:15:09Z</time>
      </trkpt>
      <trkpt lat="42.71808" lon="1.69512">
        <ele>1875</ele>
        <time>2019-11-16T13:15:14Z</time>
      </trkpt>
      <trkpt lat="42.71807" lon="1.69505">
        <ele>1874</ele>
        <time>2019-11-16T13:15:20Z</time>
      </trkpt>
      <trkpt lat="42.71807" lon="1.695">
        <ele>1874</ele>
        <time>2019-11-16T13:15:23Z</time>
      </trkpt>
      <trkpt lat="42.71808" lon="1.69489">
        <ele>1873</ele>
        <time>2019-11-16T13:15:30Z</time>
      </trkpt>
      <trkpt lat="42.71809" lon="1.69482">
        <ele>1872</ele>
        <time>2019-11-16T13:15:36Z</time>
      </trkpt>
      <trkpt lat="42.71806" lon="1.69474">
        <ele>1871</ele>
        <time>2019-11-16T13:15:48Z</time>
      </trkpt>
      <trkpt lat="42.71806" lon="1.69466">
        <ele>1871</ele>
        <time>2019-11-16T13:15:54Z</time>
      </trkpt>
      <trkpt lat="42.71804" lon="1.69461">
        <ele>1870</ele>
        <time>2019-11-16T13:16:00Z</time>
      </trkpt>
      <trkpt lat="42.71799" lon="1.69451">
        <ele>1870</ele>
        <time>2019-11-16T13:16:08Z</time>
      </trkpt>
      <trkpt lat="42.71793" lon="1.69444">
        <ele>1869</ele>
        <time>2019-11-16T13:16:17Z</time>
      </trkpt>
      <trkpt lat="42.71785" lon="1.69441">
        <ele>1869</ele>
        <time>2019-11-16T13:16:25Z</time>
      </trkpt>
      <trkpt lat="42.71781" lon="1.69442">
        <ele>1869</ele>
        <time>2019-11-16T13:16:28Z</time>
      </trkpt>
      <trkpt lat="42.71777" lon="1.69442">
        <ele>1869</ele>
        <time>2019-11-16T13:16:32Z</time>
      </trkpt>
      <trkpt lat="42.71759" lon="1.69442">
        <ele>1867</ele>
        <time>2019-11-16T13:16:50Z</time>
      </trkpt>
      <trkpt lat="42.71756" lon="1.69442">
        <ele>1867</ele>
        <time>2019-11-16T13:16:55Z</time>
      </trkpt>
      <trkpt lat="42.71746" lon="1.6944">
        <ele>1866</ele>
        <time>2019-11-16T13:17:05Z</time>
      </trkpt>
      <trkpt lat="42.71727" lon="1.69432">
        <ele>1865</ele>
        <time>2019-11-16T13:17:24Z</time>
      </trkpt>
      <trkpt lat="42.71724" lon="1.69429">
        <ele>1865</ele>
        <time>2019-11-16T13:17:28Z</time>
      </trkpt>
      <trkpt lat="42.71706" lon="1.69409">
        <ele>1863</ele>
        <time>2019-11-16T13:17:47Z</time>
      </trkpt>
      <trkpt lat="42.71705" lon="1.69404">
        <ele>1863</ele>
        <time>2019-11-16T13:17:53Z</time>
      </trkpt>
      <trkpt lat="42.71704" lon="1.69399">
        <ele>1862</ele>
        <time>2019-11-16T13:18:22Z</time>
      </trkpt>
      <trkpt lat="42.717" lon="1.69399">
        <ele>1862</ele>
        <time>2019-11-16T13:18:29Z</time>
      </trkpt>
      <trkpt lat="42.71701" lon="1.69399">
        <ele>1861</ele>
        <time>2019-11-16T13:19:43Z</time>
      </trkpt>
      <trkpt lat="42.71701" lon="1.69396">
        <ele>1861</ele>
        <time>2019-11-16T13:20:29Z</time>
      </trkpt>
      <trkpt lat="42.717" lon="1.6939">
        <ele>1861</ele>
        <time>2019-11-16T13:20:33Z</time>
      </trkpt>
      <trkpt lat="42.71696" lon="1.69374">
        <ele>1860</ele>
        <time>2019-11-16T13:20:45Z</time>
      </trkpt>
      <trkpt lat="42.71697" lon="1.6935">
        <ele>1859</ele>
        <time>2019-11-16T13:21:02Z</time>
      </trkpt>
      <trkpt lat="42.71699" lon="1.69339">
        <ele>1858</ele>
        <time>2019-11-16T13:21:11Z</time>
      </trkpt>
      <trkpt lat="42.717" lon="1.69333">
        <ele>1857</ele>
        <time>2019-11-16T13:21:15Z</time>
      </trkpt>
      <trkpt lat="42.71702" lon="1.69327">
        <ele>1857</ele>
        <time>2019-11-16T13:21:21Z</time>
      </trkpt>
      <trkpt lat="42.71705" lon="1.69316">
        <ele>1856</ele>
        <time>2019-11-16T13:21:29Z</time>
      </trkpt>
      <trkpt lat="42.7171" lon="1.69301">
        <ele>1855</ele>
        <time>2019-11-16T13:21:42Z</time>
      </trkpt>
      <trkpt lat="42.71717" lon="1.69285">
        <ele>1855</ele>
        <time>2019-11-16T13:21:55Z</time>
      </trkpt>
      <trkpt lat="42.71722" lon="1.69271">
        <ele>1854</ele>
        <time>2019-11-16T13:22:05Z</time>
      </trkpt>
      <trkpt lat="42.71728" lon="1.69259">
        <ele>1854</ele>
        <time>2019-11-16T13:22:13Z</time>
      </trkpt>
      <trkpt lat="42.71731" lon="1.69255">
        <ele>1854</ele>
        <time>2019-11-16T13:22:17Z</time>
      </trkpt>
      <trkpt lat="42.71735" lon="1.69254">
        <ele>1854</ele>
        <time>2019-11-16T13:22:21Z</time>
      </trkpt>
      <trkpt lat="42.71749" lon="1.69241">
        <ele>1855</ele>
        <time>2019-11-16T13:22:35Z</time>
      </trkpt>
      <trkpt lat="42.71753" lon="1.6924">
        <ele>1855</ele>
        <time>2019-11-16T13:22:39Z</time>
      </trkpt>
      <trkpt lat="42.71774" lon="1.69234">
        <ele>1854</ele>
        <time>2019-11-16T13:22:57Z</time>
      </trkpt>
      <trkpt lat="42.7178" lon="1.69234">
        <ele>1854</ele>
        <time>2019-11-16T13:23:03Z</time>
      </trkpt>
      <trkpt lat="42.71797" lon="1.6923">
        <ele>1853</ele>
        <time>2019-11-16T13:23:18Z</time>
      </trkpt>
      <trkpt lat="42.718" lon="1.69228">
        <ele>1852</ele>
        <time>2019-11-16T13:23:22Z</time>
      </trkpt>
      <trkpt lat="42.71811" lon="1.69225">
        <ele>1851</ele>
        <time>2019-11-16T13:23:32Z</time>
      </trkpt>
      <trkpt lat="42.71816" lon="1.69222">
        <ele>1850</ele>
        <time>2019-11-16T13:23:37Z</time>
      </trkpt>
      <trkpt lat="42.71821" lon="1.69218">
        <ele>1849</ele>
        <time>2019-11-16T13:23:43Z</time>
      </trkpt>
      <trkpt lat="42.71836" lon="1.69208">
        <ele>1847</ele>
        <time>2019-11-16T13:24:02Z</time>
      </trkpt>
      <trkpt lat="42.71845" lon="1.69195">
        <ele>1846</ele>
        <time>2019-11-16T13:24:13Z</time>
      </trkpt>
      <trkpt lat="42.71849" lon="1.6919">
        <ele>1846</ele>
        <time>2019-11-16T13:24:18Z</time>
      </trkpt>
      <trkpt lat="42.71853" lon="1.69189">
        <ele>1845</ele>
        <time>2019-11-16T13:24:24Z</time>
      </trkpt>
      <trkpt lat="42.71868" lon="1.69178">
        <ele>1845</ele>
        <time>2019-11-16T13:24:37Z</time>
      </trkpt>
      <trkpt lat="42.71882" lon="1.69173">
        <ele>1844</ele>
        <time>2019-11-16T13:24:49Z</time>
      </trkpt>
      <trkpt lat="42.71885" lon="1.69173">
        <ele>1844</ele>
        <time>2019-11-16T13:24:53Z</time>
      </trkpt>
      <trkpt lat="42.71896" lon="1.69167">
        <ele>1843</ele>
        <time>2019-11-16T13:25:04Z</time>
      </trkpt>
      <trkpt lat="42.71903" lon="1.69165">
        <ele>1843</ele>
        <time>2019-11-16T13:25:11Z</time>
      </trkpt>
      <trkpt lat="42.71908" lon="1.69164">
        <ele>1842</ele>
        <time>2019-11-16T13:25:14Z</time>
      </trkpt>
      <trkpt lat="42.71912" lon="1.69164">
        <ele>1842</ele>
        <time>2019-11-16T13:25:19Z</time>
      </trkpt>
      <trkpt lat="42.71918" lon="1.69164">
        <ele>1840</ele>
        <time>2019-11-16T13:25:25Z</time>
      </trkpt>
      <trkpt lat="42.71933" lon="1.69159">
        <ele>1838</ele>
        <time>2019-11-16T13:25:39Z</time>
      </trkpt>
      <trkpt lat="42.71943" lon="1.69158">
        <ele>1837</ele>
        <time>2019-11-16T13:25:47Z</time>
      </trkpt>
      <trkpt lat="42.71961" lon="1.69157">
        <ele>1837</ele>
        <time>2019-11-16T13:26:04Z</time>
      </trkpt>
      <trkpt lat="42.71965" lon="1.69157">
        <ele>1836</ele>
        <time>2019-11-16T13:26:09Z</time>
      </trkpt>
      <trkpt lat="42.71981" lon="1.69159">
        <ele>1835</ele>
        <time>2019-11-16T13:26:21Z</time>
      </trkpt>
      <trkpt lat="42.71985" lon="1.6916">
        <ele>1835</ele>
        <time>2019-11-16T13:26:25Z</time>
      </trkpt>
      <trkpt lat="42.72022" lon="1.69164">
        <ele>1830</ele>
        <time>2019-11-16T13:26:58Z</time>
      </trkpt>
      <trkpt lat="42.72059" lon="1.69167">
        <ele>1827</ele>
        <time>2019-11-16T13:27:30Z</time>
      </trkpt>
      <trkpt lat="42.7207" lon="1.69168">
        <ele>1826</ele>
        <time>2019-11-16T13:27:40Z</time>
      </trkpt>
      <trkpt lat="42.72096" lon="1.69173">
        <ele>1825</ele>
        <time>2019-11-16T13:28:06Z</time>
      </trkpt>
      <trkpt lat="42.72103" lon="1.69174">
        <ele>1825</ele>
        <time>2019-11-16T13:28:12Z</time>
      </trkpt>
      <trkpt lat="42.72106" lon="1.69176">
        <ele>1824</ele>
        <time>2019-11-16T13:28:17Z</time>
      </trkpt>
      <trkpt lat="42.72139" lon="1.69192">
        <ele>1825</ele>
        <time>2019-11-16T13:28:48Z</time>
      </trkpt>
      <trkpt lat="42.72167" lon="1.69206">
        <ele>1823</ele>
        <time>2019-11-16T13:29:16Z</time>
      </trkpt>
      <trkpt lat="42.72174" lon="1.69207">
        <ele>1822</ele>
        <time>2019-11-16T13:29:22Z</time>
      </trkpt>
      <trkpt lat="42.72182" lon="1.6921">
        <ele>1821</ele>
        <time>2019-11-16T13:29:29Z</time>
      </trkpt>
      <trkpt lat="42.72195" lon="1.69209">
        <ele>1818</ele>
        <time>2019-11-16T13:29:45Z</time>
      </trkpt>
      <trkpt lat="42.72218" lon="1.69206">
        <ele>1814</ele>
        <time>2019-11-16T13:30:06Z</time>
      </trkpt>
      <trkpt lat="42.72224" lon="1.69205">
        <ele>1812</ele>
        <time>2019-11-16T13:30:11Z</time>
      </trkpt>
      <trkpt lat="42.72228" lon="1.69203">
        <ele>1812</ele>
        <time>2019-11-16T13:30:15Z</time>
      </trkpt>
      <trkpt lat="42.72252" lon="1.69194">
        <ele>1808</ele>
        <time>2019-11-16T13:30:39Z</time>
      </trkpt>
      <trkpt lat="42.72262" lon="1.69191">
        <ele>1807</ele>
        <time>2019-11-16T13:30:48Z</time>
      </trkpt>
      <trkpt lat="42.72268" lon="1.69191">
        <ele>1806</ele>
        <time>2019-11-16T13:30:53Z</time>
      </trkpt>
      <trkpt lat="42.7228" lon="1.69185">
        <ele>1804</ele>
        <time>2019-11-16T13:31:08Z</time>
      </trkpt>
      <trkpt lat="42.72284" lon="1.69184">
        <ele>1803</ele>
        <time>2019-11-16T13:31:11Z</time>
      </trkpt>
      <trkpt lat="42.72288" lon="1.69183">
        <ele>1803</ele>
        <time>2019-11-16T13:31:15Z</time>
      </trkpt>
      <trkpt lat="42.72315" lon="1.6917">
        <ele>1801</ele>
        <time>2019-11-16T13:31:42Z</time>
      </trkpt>
      <trkpt lat="42.72319" lon="1.69169">
        <ele>1800</ele>
        <time>2019-11-16T13:31:48Z</time>
      </trkpt>
      <trkpt lat="42.72339" lon="1.6916">
        <ele>1799</ele>
        <time>2019-11-16T13:32:07Z</time>
      </trkpt>
      <trkpt lat="42.72343" lon="1.69158">
        <ele>1799</ele>
        <time>2019-11-16T13:32:12Z</time>
      </trkpt>
      <trkpt lat="42.72349" lon="1.69157">
        <ele>1798</ele>
        <time>2019-11-16T13:32:18Z</time>
      </trkpt>
      <trkpt lat="42.72358" lon="1.69153">
        <ele>1797</ele>
        <time>2019-11-16T13:32:29Z</time>
      </trkpt>
      <trkpt lat="42.72363" lon="1.69151">
        <ele>1796</ele>
        <time>2019-11-16T13:32:33Z</time>
      </trkpt>
      <trkpt lat="42.72377" lon="1.69147">
        <ele>1794</ele>
        <time>2019-11-16T13:32:51Z</time>
      </trkpt>
      <trkpt lat="42.72383" lon="1.69144">
        <ele>1794</ele>
        <time>2019-11-16T13:32:56Z</time>
      </trkpt>
      <trkpt lat="42.72387" lon="1.69142">
        <ele>1793</ele>
        <time>2019-11-16T13:32:59Z</time>
      </trkpt>
      <trkpt lat="42.72395" lon="1.69137">
        <ele>1793</ele>
        <time>2019-11-16T13:33:07Z</time>
      </trkpt>
      <trkpt lat="42.72398" lon="1.69135">
        <ele>1792</ele>
        <time>2019-11-16T13:33:11Z</time>
      </trkpt>
      <trkpt lat="42.72402" lon="1.69132">
        <ele>1792</ele>
        <time>2019-11-16T13:33:16Z</time>
      </trkpt>
      <trkpt lat="42.72406" lon="1.6913">
        <ele>1792</ele>
        <time>2019-11-16T13:33:23Z</time>
      </trkpt>
      <trkpt lat="42.72411" lon="1.69127">
        <ele>1792</ele>
        <time>2019-11-16T13:33:29Z</time>
      </trkpt>
      <trkpt lat="42.72415" lon="1.69125">
        <ele>1791</ele>
        <time>2019-11-16T13:33:32Z</time>
      </trkpt>
      <trkpt lat="42.72438" lon="1.69103">
        <ele>1790</ele>
        <time>2019-11-16T13:34:02Z</time>
      </trkpt>
      <trkpt lat="42.72459" lon="1.6908">
        <ele>1789</ele>
        <time>2019-11-16T13:34:29Z</time>
      </trkpt>
      <trkpt lat="42.72466" lon="1.69077">
        <ele>1788</ele>
        <time>2019-11-16T13:34:38Z</time>
      </trkpt>
      <trkpt lat="42.72476" lon="1.69075">
        <ele>1788</ele>
        <time>2019-11-16T13:34:48Z</time>
      </trkpt>
      <trkpt lat="42.72484" lon="1.69076">
        <ele>1787</ele>
        <time>2019-11-16T13:34:57Z</time>
      </trkpt>
      <trkpt lat="42.72488" lon="1.69075">
        <ele>1787</ele>
        <time>2019-11-16T13:35:01Z</time>
      </trkpt>
      <trkpt lat="42.72492" lon="1.69078">
        <ele>1787</ele>
        <time>2019-11-16T13:35:06Z</time>
      </trkpt>
      <trkpt lat="42.725" lon="1.69081">
        <ele>1787</ele>
        <time>2019-11-16T13:35:17Z</time>
      </trkpt>
      <trkpt lat="42.72504" lon="1.69078">
        <ele>1787</ele>
        <time>2019-11-16T13:35:23Z</time>
      </trkpt>
      <trkpt lat="42.72513" lon="1.6906">
        <ele>1787</ele>
        <time>2019-11-16T13:35:43Z</time>
      </trkpt>
      <trkpt lat="42.72516" lon="1.69057">
        <ele>1787</ele>
        <time>2019-11-16T13:35:46Z</time>
      </trkpt>
      <trkpt lat="42.7252" lon="1.69055">
        <ele>1787</ele>
        <time>2019-11-16T13:35:52Z</time>
      </trkpt>
    </trkseg>
  </trk>
</gpx>